<?xml version="1.0" encoding="UTF-8" standalone="no" ?>
<gpx xmlns="http://www.topografix.com/GPX/1/1" xmlns:xsi="http://www.w3.org/2001/XMLSchema-instance" xsi:schemaLocation="http://www.topografix.com/GPX/1/1 http://www.topografix.com/GPX/1/1/gpx.xsd" version="1.1" creator="VisuGPX - https://www.visugpx.com">
  <metadata>
    <name>Tour des Monges</name>
  </metadata>
  <trk>
    <name><![CDATA[11/07/2021 08:54:41 Tour des Monges]]></name>
    <extensions>
      <line xmlns="http://www.topografix.com/GPX/gpx_style/0/2">
        <color>0000FF</color>
        <width>4</width>
      </line>
    </extensions>
    <trkseg>
      <trkpt lat="44.24918" lon="6.14439">
        <ele>1236.4000244141</ele>
        <time>2021-07-11T06:54:41Z</time>
      </trkpt>
      <trkpt lat="44.24918" lon="6.14439">
        <ele>1236.4000244141</ele>
        <time>2021-07-11T06:54:42Z</time>
      </trkpt>
      <trkpt lat="44.24921" lon="6.14443">
        <ele>1236.5999755859</ele>
        <time>2021-07-11T06:55:09Z</time>
      </trkpt>
      <trkpt lat="44.24921" lon="6.14441">
        <ele>1236.5999755859</ele>
        <time>2021-07-11T06:55:33Z</time>
      </trkpt>
      <trkpt lat="44.24925" lon="6.14465">
        <ele>1236.8000488281</ele>
        <time>2021-07-11T06:56:12Z</time>
      </trkpt>
      <trkpt lat="44.24921" lon="6.14468">
        <ele>1237</ele>
        <time>2021-07-11T06:56:19Z</time>
      </trkpt>
      <trkpt lat="44.24906" lon="6.14474">
        <ele>1235.8000488281</ele>
        <time>2021-07-11T06:56:40Z</time>
      </trkpt>
      <trkpt lat="44.249" lon="6.1448">
        <ele>1235.1999511719</ele>
        <time>2021-07-11T06:57:05Z</time>
      </trkpt>
      <trkpt lat="44.249" lon="6.1448">
        <ele>1235.1999511719</ele>
        <time>2021-07-11T06:57:11Z</time>
      </trkpt>
      <trkpt lat="44.24897" lon="6.14497">
        <ele>1236.8000488281</ele>
        <time>2021-07-11T06:57:44Z</time>
      </trkpt>
      <trkpt lat="44.24903" lon="6.14507">
        <ele>1237.8000488281</ele>
        <time>2021-07-11T06:58:05Z</time>
      </trkpt>
      <trkpt lat="44.2492" lon="6.14529">
        <ele>1238.5999755859</ele>
        <time>2021-07-11T06:58:29Z</time>
      </trkpt>
      <trkpt lat="44.24935" lon="6.14554">
        <ele>1239.8000488281</ele>
        <time>2021-07-11T06:58:48Z</time>
      </trkpt>
      <trkpt lat="44.24943" lon="6.14572">
        <ele>1241</ele>
        <time>2021-07-11T06:59:06Z</time>
      </trkpt>
      <trkpt lat="44.24951" lon="6.14593">
        <ele>1244.1999511719</ele>
        <time>2021-07-11T06:59:26Z</time>
      </trkpt>
      <trkpt lat="44.24954" lon="6.1461">
        <ele>1247.1999511719</ele>
        <time>2021-07-11T06:59:42Z</time>
      </trkpt>
      <trkpt lat="44.24952" lon="6.14626">
        <ele>1250.1999511719</ele>
        <time>2021-07-11T06:59:59Z</time>
      </trkpt>
      <trkpt lat="44.24946" lon="6.14633">
        <ele>1253.5999755859</ele>
        <time>2021-07-11T07:00:15Z</time>
      </trkpt>
      <trkpt lat="44.2494" lon="6.14644">
        <ele>1256.4000244141</ele>
        <time>2021-07-11T07:00:33Z</time>
      </trkpt>
      <trkpt lat="44.24932" lon="6.14634">
        <ele>1258.5999755859</ele>
        <time>2021-07-11T07:00:46Z</time>
      </trkpt>
      <trkpt lat="44.24932" lon="6.14629">
        <ele>1259</ele>
        <time>2021-07-11T07:00:48Z</time>
      </trkpt>
      <trkpt lat="44.24926" lon="6.14618">
        <ele>1260.5999755859</ele>
        <time>2021-07-11T07:01:00Z</time>
      </trkpt>
      <trkpt lat="44.24912" lon="6.14619">
        <ele>1263</ele>
        <time>2021-07-11T07:01:18Z</time>
      </trkpt>
      <trkpt lat="44.24911" lon="6.14628">
        <ele>1264.8000488281</ele>
        <time>2021-07-11T07:01:34Z</time>
      </trkpt>
      <trkpt lat="44.24916" lon="6.14632">
        <ele>1266.5999755859</ele>
        <time>2021-07-11T07:01:45Z</time>
      </trkpt>
      <trkpt lat="44.24915" lon="6.1466">
        <ele>1270</ele>
        <time>2021-07-11T07:02:07Z</time>
      </trkpt>
      <trkpt lat="44.24916" lon="6.14683">
        <ele>1273</ele>
        <time>2021-07-11T07:02:29Z</time>
      </trkpt>
      <trkpt lat="44.24924" lon="6.14694">
        <ele>1275</ele>
        <time>2021-07-11T07:02:44Z</time>
      </trkpt>
      <trkpt lat="44.24914" lon="6.14704">
        <ele>1278.1999511719</ele>
        <time>2021-07-11T07:03:04Z</time>
      </trkpt>
      <trkpt lat="44.24906" lon="6.14715">
        <ele>1281.1999511719</ele>
        <time>2021-07-11T07:03:22Z</time>
      </trkpt>
      <trkpt lat="44.2491" lon="6.1472">
        <ele>1284.1999511719</ele>
        <time>2021-07-11T07:03:40Z</time>
      </trkpt>
      <trkpt lat="44.24919" lon="6.14734">
        <ele>1287</ele>
        <time>2021-07-11T07:03:59Z</time>
      </trkpt>
      <trkpt lat="44.2491" lon="6.14752">
        <ele>1290</ele>
        <time>2021-07-11T07:04:20Z</time>
      </trkpt>
      <trkpt lat="44.24912" lon="6.1477">
        <ele>1293</ele>
        <time>2021-07-11T07:04:40Z</time>
      </trkpt>
      <trkpt lat="44.24903" lon="6.14788">
        <ele>1296</ele>
        <time>2021-07-11T07:05:01Z</time>
      </trkpt>
      <trkpt lat="44.24894" lon="6.14804">
        <ele>1299</ele>
        <time>2021-07-11T07:05:22Z</time>
      </trkpt>
      <trkpt lat="44.24893" lon="6.14817">
        <ele>1301.8000488281</ele>
        <time>2021-07-11T07:05:45Z</time>
      </trkpt>
      <trkpt lat="44.2489" lon="6.14835">
        <ele>1304.4000244141</ele>
        <time>2021-07-11T07:06:07Z</time>
      </trkpt>
      <trkpt lat="44.24904" lon="6.14842">
        <ele>1307.5999755859</ele>
        <time>2021-07-11T07:06:28Z</time>
      </trkpt>
      <trkpt lat="44.24907" lon="6.14849">
        <ele>1309</ele>
        <time>2021-07-11T07:06:54Z</time>
      </trkpt>
      <trkpt lat="44.24903" lon="6.14867">
        <ele>1310.1999511719</ele>
        <time>2021-07-11T07:07:37Z</time>
      </trkpt>
      <trkpt lat="44.2491" lon="6.14884">
        <ele>1311.4000244141</ele>
        <time>2021-07-11T07:07:55Z</time>
      </trkpt>
      <trkpt lat="44.24917" lon="6.14893">
        <ele>1314.8000488281</ele>
        <time>2021-07-11T07:08:11Z</time>
      </trkpt>
      <trkpt lat="44.24921" lon="6.14909">
        <ele>1317.8000488281</ele>
        <time>2021-07-11T07:08:27Z</time>
      </trkpt>
      <trkpt lat="44.24927" lon="6.14926">
        <ele>1320.8000488281</ele>
        <time>2021-07-11T07:08:43Z</time>
      </trkpt>
      <trkpt lat="44.24935" lon="6.14949">
        <ele>1324</ele>
        <time>2021-07-11T07:09:04Z</time>
      </trkpt>
      <trkpt lat="44.24937" lon="6.14977">
        <ele>1326.5999755859</ele>
        <time>2021-07-11T07:09:29Z</time>
      </trkpt>
      <trkpt lat="44.24938" lon="6.14993">
        <ele>1328.5999755859</ele>
        <time>2021-07-11T07:09:45Z</time>
      </trkpt>
      <trkpt lat="44.24933" lon="6.15009">
        <ele>1331.5999755859</ele>
        <time>2021-07-11T07:10:05Z</time>
      </trkpt>
      <trkpt lat="44.24933" lon="6.1501">
        <ele>1331.8000488281</ele>
        <time>2021-07-11T07:10:06Z</time>
      </trkpt>
      <trkpt lat="44.24922" lon="6.15019">
        <ele>1335.1999511719</ele>
        <time>2021-07-11T07:10:22Z</time>
      </trkpt>
      <trkpt lat="44.24921" lon="6.15037">
        <ele>1338.1999511719</ele>
        <time>2021-07-11T07:10:42Z</time>
      </trkpt>
      <trkpt lat="44.24924" lon="6.15059">
        <ele>1340.1999511719</ele>
        <time>2021-07-11T07:11:11Z</time>
      </trkpt>
      <trkpt lat="44.24921" lon="6.15081">
        <ele>1343.1999511719</ele>
        <time>2021-07-11T07:11:38Z</time>
      </trkpt>
      <trkpt lat="44.24917" lon="6.15089">
        <ele>1345</ele>
        <time>2021-07-11T07:11:50Z</time>
      </trkpt>
      <trkpt lat="44.24915" lon="6.15112">
        <ele>1348.1999511719</ele>
        <time>2021-07-11T07:12:12Z</time>
      </trkpt>
      <trkpt lat="44.24914" lon="6.15128">
        <ele>1351.4000244141</ele>
        <time>2021-07-11T07:12:28Z</time>
      </trkpt>
      <trkpt lat="44.2492" lon="6.15146">
        <ele>1354.5999755859</ele>
        <time>2021-07-11T07:12:45Z</time>
      </trkpt>
      <trkpt lat="44.24921" lon="6.1517">
        <ele>1357.5999755859</ele>
        <time>2021-07-11T07:13:07Z</time>
      </trkpt>
      <trkpt lat="44.24922" lon="6.15198">
        <ele>1360.5999755859</ele>
        <time>2021-07-11T07:13:33Z</time>
      </trkpt>
      <trkpt lat="44.24923" lon="6.1522">
        <ele>1363.4000244141</ele>
        <time>2021-07-11T07:13:59Z</time>
      </trkpt>
      <trkpt lat="44.24919" lon="6.15236">
        <ele>1364.8000488281</ele>
        <time>2021-07-11T07:14:21Z</time>
      </trkpt>
      <trkpt lat="44.24913" lon="6.15259">
        <ele>1367.5999755859</ele>
        <time>2021-07-11T07:14:46Z</time>
      </trkpt>
      <trkpt lat="44.24905" lon="6.15276">
        <ele>1370.5999755859</ele>
        <time>2021-07-11T07:15:06Z</time>
      </trkpt>
      <trkpt lat="44.24902" lon="6.153">
        <ele>1373.8000488281</ele>
        <time>2021-07-11T07:15:28Z</time>
      </trkpt>
      <trkpt lat="44.24906" lon="6.1531">
        <ele>1375.4000244141</ele>
        <time>2021-07-11T07:15:39Z</time>
      </trkpt>
      <trkpt lat="44.24918" lon="6.15326">
        <ele>1378.4000244141</ele>
        <time>2021-07-11T07:16:03Z</time>
      </trkpt>
      <trkpt lat="44.24908" lon="6.15339">
        <ele>1381.4000244141</ele>
        <time>2021-07-11T07:16:25Z</time>
      </trkpt>
      <trkpt lat="44.24893" lon="6.15345">
        <ele>1384.5999755859</ele>
        <time>2021-07-11T07:16:46Z</time>
      </trkpt>
      <trkpt lat="44.24875" lon="6.15343">
        <ele>1387.5999755859</ele>
        <time>2021-07-11T07:17:07Z</time>
      </trkpt>
      <trkpt lat="44.2486" lon="6.15346">
        <ele>1390.5999755859</ele>
        <time>2021-07-11T07:17:27Z</time>
      </trkpt>
      <trkpt lat="44.2485" lon="6.1535">
        <ele>1393.8000488281</ele>
        <time>2021-07-11T07:17:52Z</time>
      </trkpt>
      <trkpt lat="44.24847" lon="6.15346">
        <ele>1395</ele>
        <time>2021-07-11T07:17:58Z</time>
      </trkpt>
      <trkpt lat="44.2484" lon="6.15335">
        <ele>1398.4000244141</ele>
        <time>2021-07-11T07:18:19Z</time>
      </trkpt>
      <trkpt lat="44.24835" lon="6.15322">
        <ele>1401</ele>
        <time>2021-07-11T07:18:36Z</time>
      </trkpt>
      <trkpt lat="44.24833" lon="6.15319">
        <ele>1401.8000488281</ele>
        <time>2021-07-11T07:18:41Z</time>
      </trkpt>
      <trkpt lat="44.24832" lon="6.15316">
        <ele>1402</ele>
        <time>2021-07-11T07:18:43Z</time>
      </trkpt>
      <trkpt lat="44.24823" lon="6.15306">
        <ele>1405.1999511719</ele>
        <time>2021-07-11T07:19:01Z</time>
      </trkpt>
      <trkpt lat="44.24814" lon="6.15295">
        <ele>1408.4000244141</ele>
        <time>2021-07-11T07:19:21Z</time>
      </trkpt>
      <trkpt lat="44.24813" lon="6.15295">
        <ele>1408.5999755859</ele>
        <time>2021-07-11T07:19:23Z</time>
      </trkpt>
      <trkpt lat="44.24805" lon="6.15287">
        <ele>1411.8000488281</ele>
        <time>2021-07-11T07:19:42Z</time>
      </trkpt>
      <trkpt lat="44.24803" lon="6.15285">
        <ele>1412.1999511719</ele>
        <time>2021-07-11T07:19:46Z</time>
      </trkpt>
      <trkpt lat="44.24793" lon="6.15276">
        <ele>1415.4000244141</ele>
        <time>2021-07-11T07:20:07Z</time>
      </trkpt>
      <trkpt lat="44.24796" lon="6.15278">
        <ele>1416.8000488281</ele>
        <time>2021-07-11T07:20:39Z</time>
      </trkpt>
      <trkpt lat="44.24803" lon="6.1528">
        <ele>1416.8000488281</ele>
        <time>2021-07-11T07:21:15Z</time>
      </trkpt>
      <trkpt lat="44.24791" lon="6.15274">
        <ele>1416.8000488281</ele>
        <time>2021-07-11T07:21:46Z</time>
      </trkpt>
      <trkpt lat="44.24802" lon="6.15276">
        <ele>1416.8000488281</ele>
        <time>2021-07-11T07:22:38Z</time>
      </trkpt>
      <trkpt lat="44.24793" lon="6.15272">
        <ele>1417.1999511719</ele>
        <time>2021-07-11T07:23:18Z</time>
      </trkpt>
      <trkpt lat="44.24788" lon="6.15281">
        <ele>1419.8000488281</ele>
        <time>2021-07-11T07:23:38Z</time>
      </trkpt>
      <trkpt lat="44.24786" lon="6.15274">
        <ele>1421.1999511719</ele>
        <time>2021-07-11T07:23:48Z</time>
      </trkpt>
      <trkpt lat="44.24784" lon="6.15266">
        <ele>1423.1999511719</ele>
        <time>2021-07-11T07:23:58Z</time>
      </trkpt>
      <trkpt lat="44.24782" lon="6.15261">
        <ele>1424</ele>
        <time>2021-07-11T07:24:03Z</time>
      </trkpt>
      <trkpt lat="44.24772" lon="6.15243">
        <ele>1427.1999511719</ele>
        <time>2021-07-11T07:24:25Z</time>
      </trkpt>
      <trkpt lat="44.24765" lon="6.15232">
        <ele>1430.4000244141</ele>
        <time>2021-07-11T07:24:40Z</time>
      </trkpt>
      <trkpt lat="44.24757" lon="6.15224">
        <ele>1433.4000244141</ele>
        <time>2021-07-11T07:24:56Z</time>
      </trkpt>
      <trkpt lat="44.24752" lon="6.15212">
        <ele>1436.5999755859</ele>
        <time>2021-07-11T07:25:14Z</time>
      </trkpt>
      <trkpt lat="44.24749" lon="6.15208">
        <ele>1438</ele>
        <time>2021-07-11T07:25:21Z</time>
      </trkpt>
      <trkpt lat="44.24742" lon="6.1519">
        <ele>1441.1999511719</ele>
        <time>2021-07-11T07:25:43Z</time>
      </trkpt>
      <trkpt lat="44.24736" lon="6.15179">
        <ele>1444.4000244141</ele>
        <time>2021-07-11T07:26:00Z</time>
      </trkpt>
      <trkpt lat="44.2473" lon="6.1517">
        <ele>1447.4000244141</ele>
        <time>2021-07-11T07:26:17Z</time>
      </trkpt>
      <trkpt lat="44.24726" lon="6.15156">
        <ele>1450.4000244141</ele>
        <time>2021-07-11T07:26:34Z</time>
      </trkpt>
      <trkpt lat="44.24724" lon="6.15147">
        <ele>1453.1999511719</ele>
        <time>2021-07-11T07:26:57Z</time>
      </trkpt>
      <trkpt lat="44.24721" lon="6.15128">
        <ele>1454.5999755859</ele>
        <time>2021-07-11T07:27:20Z</time>
      </trkpt>
      <trkpt lat="44.24715" lon="6.15116">
        <ele>1456</ele>
        <time>2021-07-11T07:27:39Z</time>
      </trkpt>
      <trkpt lat="44.24715" lon="6.1512">
        <ele>1459</ele>
        <time>2021-07-11T07:28:03Z</time>
      </trkpt>
      <trkpt lat="44.24708" lon="6.15115">
        <ele>1461.1999511719</ele>
        <time>2021-07-11T07:28:25Z</time>
      </trkpt>
      <trkpt lat="44.24706" lon="6.15107">
        <ele>1461.8000488281</ele>
        <time>2021-07-11T07:28:48Z</time>
      </trkpt>
      <trkpt lat="44.24697" lon="6.15093">
        <ele>1464.1999511719</ele>
        <time>2021-07-11T07:29:12Z</time>
      </trkpt>
      <trkpt lat="44.24685" lon="6.15083">
        <ele>1467.1999511719</ele>
        <time>2021-07-11T07:29:29Z</time>
      </trkpt>
      <trkpt lat="44.24669" lon="6.15077">
        <ele>1470.1999511719</ele>
        <time>2021-07-11T07:29:50Z</time>
      </trkpt>
      <trkpt lat="44.24659" lon="6.15077">
        <ele>1473.4000244141</ele>
        <time>2021-07-11T07:30:09Z</time>
      </trkpt>
      <trkpt lat="44.24652" lon="6.15081">
        <ele>1476.5999755859</ele>
        <time>2021-07-11T07:30:27Z</time>
      </trkpt>
      <trkpt lat="44.24644" lon="6.1508">
        <ele>1479.5999755859</ele>
        <time>2021-07-11T07:30:44Z</time>
      </trkpt>
      <trkpt lat="44.24633" lon="6.15082">
        <ele>1481.8000488281</ele>
        <time>2021-07-11T07:31:03Z</time>
      </trkpt>
      <trkpt lat="44.24638" lon="6.15103">
        <ele>1482</ele>
        <time>2021-07-11T07:31:25Z</time>
      </trkpt>
      <trkpt lat="44.24638" lon="6.15124">
        <ele>1483.1999511719</ele>
        <time>2021-07-11T07:31:44Z</time>
      </trkpt>
      <trkpt lat="44.2464" lon="6.15145">
        <ele>1484.8000488281</ele>
        <time>2021-07-11T07:32:06Z</time>
      </trkpt>
      <trkpt lat="44.24644" lon="6.15159">
        <ele>1487.8000488281</ele>
        <time>2021-07-11T07:32:26Z</time>
      </trkpt>
      <trkpt lat="44.24648" lon="6.15181">
        <ele>1490.8000488281</ele>
        <time>2021-07-11T07:32:50Z</time>
      </trkpt>
      <trkpt lat="44.24658" lon="6.15193">
        <ele>1492.1999511719</ele>
        <time>2021-07-11T07:33:02Z</time>
      </trkpt>
      <trkpt lat="44.24658" lon="6.15207">
        <ele>1493.5999755859</ele>
        <time>2021-07-11T07:33:23Z</time>
      </trkpt>
      <trkpt lat="44.24656" lon="6.15214">
        <ele>1495.8000488281</ele>
        <time>2021-07-11T07:33:58Z</time>
      </trkpt>
      <trkpt lat="44.24653" lon="6.15212">
        <ele>1495.5999755859</ele>
        <time>2021-07-11T07:34:28Z</time>
      </trkpt>
      <trkpt lat="44.24646" lon="6.15205">
        <ele>1496</ele>
        <time>2021-07-11T07:35:13Z</time>
      </trkpt>
      <trkpt lat="44.24648" lon="6.15199">
        <ele>1495.5999755859</ele>
        <time>2021-07-11T07:36:21Z</time>
      </trkpt>
      <trkpt lat="44.24651" lon="6.15208">
        <ele>1495.5999755859</ele>
        <time>2021-07-11T07:37:23Z</time>
      </trkpt>
      <trkpt lat="44.24643" lon="6.15204">
        <ele>1495.5999755859</ele>
        <time>2021-07-11T07:38:23Z</time>
      </trkpt>
      <trkpt lat="44.24644" lon="6.15204">
        <ele>1495.4000244141</ele>
        <time>2021-07-11T07:38:39Z</time>
      </trkpt>
      <trkpt lat="44.24647" lon="6.15224">
        <ele>1497.4000244141</ele>
        <time>2021-07-11T07:39:02Z</time>
      </trkpt>
      <trkpt lat="44.24645" lon="6.15234">
        <ele>1500.5999755859</ele>
        <time>2021-07-11T07:39:18Z</time>
      </trkpt>
      <trkpt lat="44.24641" lon="6.15241">
        <ele>1502</ele>
        <time>2021-07-11T07:39:53Z</time>
      </trkpt>
      <trkpt lat="44.24644" lon="6.15258">
        <ele>1505</ele>
        <time>2021-07-11T07:40:13Z</time>
      </trkpt>
      <trkpt lat="44.24643" lon="6.15271">
        <ele>1508.1999511719</ele>
        <time>2021-07-11T07:40:41Z</time>
      </trkpt>
      <trkpt lat="44.24643" lon="6.15283">
        <ele>1511.4000244141</ele>
        <time>2021-07-11T07:40:59Z</time>
      </trkpt>
      <trkpt lat="44.2465" lon="6.15294">
        <ele>1514.4000244141</ele>
        <time>2021-07-11T07:41:16Z</time>
      </trkpt>
      <trkpt lat="44.24655" lon="6.15302">
        <ele>1517.4000244141</ele>
        <time>2021-07-11T07:41:32Z</time>
      </trkpt>
      <trkpt lat="44.24659" lon="6.15305">
        <ele>1520.1999511719</ele>
        <time>2021-07-11T07:41:54Z</time>
      </trkpt>
      <trkpt lat="44.24664" lon="6.15315">
        <ele>1523.4000244141</ele>
        <time>2021-07-11T07:42:16Z</time>
      </trkpt>
      <trkpt lat="44.24667" lon="6.15324">
        <ele>1526.5999755859</ele>
        <time>2021-07-11T07:42:35Z</time>
      </trkpt>
      <trkpt lat="44.24671" lon="6.15334">
        <ele>1529.5999755859</ele>
        <time>2021-07-11T07:42:50Z</time>
      </trkpt>
      <trkpt lat="44.24671" lon="6.15344">
        <ele>1531.4000244141</ele>
        <time>2021-07-11T07:43:08Z</time>
      </trkpt>
      <trkpt lat="44.24675" lon="6.15354">
        <ele>1534.4000244141</ele>
        <time>2021-07-11T07:43:27Z</time>
      </trkpt>
      <trkpt lat="44.24674" lon="6.15362">
        <ele>1537.4000244141</ele>
        <time>2021-07-11T07:43:42Z</time>
      </trkpt>
      <trkpt lat="44.24677" lon="6.15374">
        <ele>1539.1999511719</ele>
        <time>2021-07-11T07:44:06Z</time>
      </trkpt>
      <trkpt lat="44.24681" lon="6.15385">
        <ele>1540.8000488281</ele>
        <time>2021-07-11T07:44:24Z</time>
      </trkpt>
      <trkpt lat="44.2468" lon="6.15396">
        <ele>1540.8000488281</ele>
        <time>2021-07-11T07:44:59Z</time>
      </trkpt>
      <trkpt lat="44.24682" lon="6.15406">
        <ele>1541.5999755859</ele>
        <time>2021-07-11T07:45:22Z</time>
      </trkpt>
      <trkpt lat="44.24684" lon="6.15419">
        <ele>1540.5999755859</ele>
        <time>2021-07-11T07:45:35Z</time>
      </trkpt>
      <trkpt lat="44.24685" lon="6.15423">
        <ele>1540.4000244141</ele>
        <time>2021-07-11T07:45:38Z</time>
      </trkpt>
      <trkpt lat="44.24685" lon="6.15429">
        <ele>1539.8000488281</ele>
        <time>2021-07-11T07:45:42Z</time>
      </trkpt>
      <trkpt lat="44.24687" lon="6.15452">
        <ele>1538.4000244141</ele>
        <time>2021-07-11T07:45:58Z</time>
      </trkpt>
      <trkpt lat="44.24692" lon="6.15473">
        <ele>1538.1999511719</ele>
        <time>2021-07-11T07:46:13Z</time>
      </trkpt>
      <trkpt lat="44.24696" lon="6.15486">
        <ele>1538.1999511719</ele>
        <time>2021-07-11T07:46:24Z</time>
      </trkpt>
      <trkpt lat="44.24698" lon="6.15503">
        <ele>1537.8000488281</ele>
        <time>2021-07-11T07:46:40Z</time>
      </trkpt>
      <trkpt lat="44.247" lon="6.15523">
        <ele>1541</ele>
        <time>2021-07-11T07:46:58Z</time>
      </trkpt>
      <trkpt lat="44.24698" lon="6.15538">
        <ele>1542.8000488281</ele>
        <time>2021-07-11T07:47:11Z</time>
      </trkpt>
      <trkpt lat="44.24698" lon="6.15552">
        <ele>1543</ele>
        <time>2021-07-11T07:47:27Z</time>
      </trkpt>
      <trkpt lat="44.247" lon="6.15564">
        <ele>1543</ele>
        <time>2021-07-11T07:47:40Z</time>
      </trkpt>
      <trkpt lat="44.24696" lon="6.15575">
        <ele>1544.1999511719</ele>
        <time>2021-07-11T07:47:57Z</time>
      </trkpt>
      <trkpt lat="44.24686" lon="6.15585">
        <ele>1544.4000244141</ele>
        <time>2021-07-11T07:48:11Z</time>
      </trkpt>
      <trkpt lat="44.24677" lon="6.15596">
        <ele>1545.1999511719</ele>
        <time>2021-07-11T07:48:28Z</time>
      </trkpt>
      <trkpt lat="44.24674" lon="6.15607">
        <ele>1547</ele>
        <time>2021-07-11T07:48:48Z</time>
      </trkpt>
      <trkpt lat="44.24675" lon="6.15644">
        <ele>1546.5999755859</ele>
        <time>2021-07-11T07:49:12Z</time>
      </trkpt>
      <trkpt lat="44.24677" lon="6.15667">
        <ele>1548.1999511719</ele>
        <time>2021-07-11T07:49:34Z</time>
      </trkpt>
      <trkpt lat="44.24682" lon="6.15686">
        <ele>1551</ele>
        <time>2021-07-11T07:49:57Z</time>
      </trkpt>
      <trkpt lat="44.24692" lon="6.15718">
        <ele>1552.1999511719</ele>
        <time>2021-07-11T07:50:23Z</time>
      </trkpt>
      <trkpt lat="44.24696" lon="6.1574">
        <ele>1553.1999511719</ele>
        <time>2021-07-11T07:50:46Z</time>
      </trkpt>
      <trkpt lat="44.24694" lon="6.1574">
        <ele>1553.5999755859</ele>
        <time>2021-07-11T07:50:49Z</time>
      </trkpt>
      <trkpt lat="44.2469" lon="6.15743">
        <ele>1554.5999755859</ele>
        <time>2021-07-11T07:51:24Z</time>
      </trkpt>
      <trkpt lat="44.24694" lon="6.15737">
        <ele>1554.4000244141</ele>
        <time>2021-07-11T07:51:46Z</time>
      </trkpt>
      <trkpt lat="44.24701" lon="6.15754">
        <ele>1555</ele>
        <time>2021-07-11T07:52:07Z</time>
      </trkpt>
      <trkpt lat="44.24701" lon="6.15768">
        <ele>1557.1999511719</ele>
        <time>2021-07-11T07:52:21Z</time>
      </trkpt>
      <trkpt lat="44.24697" lon="6.15788">
        <ele>1559.8000488281</ele>
        <time>2021-07-11T07:52:42Z</time>
      </trkpt>
      <trkpt lat="44.24694" lon="6.15791">
        <ele>1560.8000488281</ele>
        <time>2021-07-11T07:52:48Z</time>
      </trkpt>
      <trkpt lat="44.24693" lon="6.15812">
        <ele>1563.8000488281</ele>
        <time>2021-07-11T07:53:18Z</time>
      </trkpt>
      <trkpt lat="44.24692" lon="6.15819">
        <ele>1567</ele>
        <time>2021-07-11T07:53:34Z</time>
      </trkpt>
      <trkpt lat="44.24696" lon="6.15837">
        <ele>1570</ele>
        <time>2021-07-11T07:53:52Z</time>
      </trkpt>
      <trkpt lat="44.24694" lon="6.15845">
        <ele>1573</ele>
        <time>2021-07-11T07:54:10Z</time>
      </trkpt>
      <trkpt lat="44.24697" lon="6.15869">
        <ele>1576</ele>
        <time>2021-07-11T07:54:34Z</time>
      </trkpt>
      <trkpt lat="44.247" lon="6.15883">
        <ele>1579</ele>
        <time>2021-07-11T07:54:53Z</time>
      </trkpt>
      <trkpt lat="44.24701" lon="6.15902">
        <ele>1582.4000244141</ele>
        <time>2021-07-11T07:55:13Z</time>
      </trkpt>
      <trkpt lat="44.24699" lon="6.15913">
        <ele>1585.4000244141</ele>
        <time>2021-07-11T07:55:30Z</time>
      </trkpt>
      <trkpt lat="44.247" lon="6.15929">
        <ele>1588.4000244141</ele>
        <time>2021-07-11T07:55:47Z</time>
      </trkpt>
      <trkpt lat="44.24699" lon="6.15943">
        <ele>1591.5999755859</ele>
        <time>2021-07-11T07:56:05Z</time>
      </trkpt>
      <trkpt lat="44.24697" lon="6.15956">
        <ele>1594.8000488281</ele>
        <time>2021-07-11T07:56:25Z</time>
      </trkpt>
      <trkpt lat="44.24694" lon="6.15966">
        <ele>1598</ele>
        <time>2021-07-11T07:56:41Z</time>
      </trkpt>
      <trkpt lat="44.24694" lon="6.15972">
        <ele>1601</ele>
        <time>2021-07-11T07:56:58Z</time>
      </trkpt>
      <trkpt lat="44.24691" lon="6.15978">
        <ele>1603.8000488281</ele>
        <time>2021-07-11T07:57:17Z</time>
      </trkpt>
      <trkpt lat="44.24691" lon="6.15988">
        <ele>1606.8000488281</ele>
        <time>2021-07-11T07:57:34Z</time>
      </trkpt>
      <trkpt lat="44.24689" lon="6.16002">
        <ele>1609.5999755859</ele>
        <time>2021-07-11T07:57:53Z</time>
      </trkpt>
      <trkpt lat="44.24686" lon="6.16022">
        <ele>1612.5999755859</ele>
        <time>2021-07-11T07:58:15Z</time>
      </trkpt>
      <trkpt lat="44.24686" lon="6.16035">
        <ele>1615.4000244141</ele>
        <time>2021-07-11T07:58:38Z</time>
      </trkpt>
      <trkpt lat="44.24684" lon="6.16047">
        <ele>1615.8000488281</ele>
        <time>2021-07-11T07:59:10Z</time>
      </trkpt>
      <trkpt lat="44.24683" lon="6.16051">
        <ele>1617.4000244141</ele>
        <time>2021-07-11T07:59:36Z</time>
      </trkpt>
      <trkpt lat="44.24684" lon="6.16051">
        <ele>1617</ele>
        <time>2021-07-11T08:00:15Z</time>
      </trkpt>
      <trkpt lat="44.24682" lon="6.16051">
        <ele>1616.8000488281</ele>
        <time>2021-07-11T08:01:03Z</time>
      </trkpt>
      <trkpt lat="44.24687" lon="6.16059">
        <ele>1617</ele>
        <time>2021-07-11T08:01:30Z</time>
      </trkpt>
      <trkpt lat="44.24685" lon="6.16081">
        <ele>1619</ele>
        <time>2021-07-11T08:01:54Z</time>
      </trkpt>
      <trkpt lat="44.24685" lon="6.161">
        <ele>1621.8000488281</ele>
        <time>2021-07-11T08:02:12Z</time>
      </trkpt>
      <trkpt lat="44.24685" lon="6.16119">
        <ele>1624.5999755859</ele>
        <time>2021-07-11T08:02:30Z</time>
      </trkpt>
      <trkpt lat="44.24685" lon="6.16121">
        <ele>1624.8000488281</ele>
        <time>2021-07-11T08:02:32Z</time>
      </trkpt>
      <trkpt lat="44.24684" lon="6.16143">
        <ele>1626.5999755859</ele>
        <time>2021-07-11T08:02:51Z</time>
      </trkpt>
      <trkpt lat="44.24677" lon="6.16161">
        <ele>1629.5999755859</ele>
        <time>2021-07-11T08:03:11Z</time>
      </trkpt>
      <trkpt lat="44.24677" lon="6.16181">
        <ele>1632.5999755859</ele>
        <time>2021-07-11T08:03:28Z</time>
      </trkpt>
      <trkpt lat="44.24677" lon="6.16198">
        <ele>1635.1999511719</ele>
        <time>2021-07-11T08:03:50Z</time>
      </trkpt>
      <trkpt lat="44.24675" lon="6.16215">
        <ele>1637.8000488281</ele>
        <time>2021-07-11T08:04:09Z</time>
      </trkpt>
      <trkpt lat="44.24672" lon="6.16236">
        <ele>1640.8000488281</ele>
        <time>2021-07-11T08:04:28Z</time>
      </trkpt>
      <trkpt lat="44.2467" lon="6.16251">
        <ele>1643</ele>
        <time>2021-07-11T08:04:44Z</time>
      </trkpt>
      <trkpt lat="44.24671" lon="6.16268">
        <ele>1645</ele>
        <time>2021-07-11T08:05:00Z</time>
      </trkpt>
      <trkpt lat="44.24671" lon="6.16283">
        <ele>1647.1999511719</ele>
        <time>2021-07-11T08:05:18Z</time>
      </trkpt>
      <trkpt lat="44.2467" lon="6.16302">
        <ele>1649.4000244141</ele>
        <time>2021-07-11T08:05:38Z</time>
      </trkpt>
      <trkpt lat="44.24672" lon="6.16322">
        <ele>1650.8000488281</ele>
        <time>2021-07-11T08:05:57Z</time>
      </trkpt>
      <trkpt lat="44.24671" lon="6.16335">
        <ele>1652.4000244141</ele>
        <time>2021-07-11T08:06:11Z</time>
      </trkpt>
      <trkpt lat="44.24669" lon="6.16353">
        <ele>1654.8000488281</ele>
        <time>2021-07-11T08:06:29Z</time>
      </trkpt>
      <trkpt lat="44.24669" lon="6.16356">
        <ele>1656.5999755859</ele>
        <time>2021-07-11T08:06:44Z</time>
      </trkpt>
      <trkpt lat="44.24669" lon="6.16358">
        <ele>1656.4000244141</ele>
        <time>2021-07-11T08:07:10Z</time>
      </trkpt>
      <trkpt lat="44.24671" lon="6.16377">
        <ele>1657.4000244141</ele>
        <time>2021-07-11T08:07:28Z</time>
      </trkpt>
      <trkpt lat="44.24671" lon="6.16395">
        <ele>1659</ele>
        <time>2021-07-11T08:07:45Z</time>
      </trkpt>
      <trkpt lat="44.24675" lon="6.16412">
        <ele>1660.5999755859</ele>
        <time>2021-07-11T08:08:06Z</time>
      </trkpt>
      <trkpt lat="44.24674" lon="6.16424">
        <ele>1661</ele>
        <time>2021-07-11T08:08:13Z</time>
      </trkpt>
      <trkpt lat="44.24678" lon="6.16454">
        <ele>1663.1999511719</ele>
        <time>2021-07-11T08:08:38Z</time>
      </trkpt>
      <trkpt lat="44.24683" lon="6.16477">
        <ele>1665.4000244141</ele>
        <time>2021-07-11T08:08:56Z</time>
      </trkpt>
      <trkpt lat="44.24687" lon="6.16499">
        <ele>1667.4000244141</ele>
        <time>2021-07-11T08:09:16Z</time>
      </trkpt>
      <trkpt lat="44.24695" lon="6.1652">
        <ele>1670</ele>
        <time>2021-07-11T08:09:37Z</time>
      </trkpt>
      <trkpt lat="44.24703" lon="6.16544">
        <ele>1673.1999511719</ele>
        <time>2021-07-11T08:09:59Z</time>
      </trkpt>
      <trkpt lat="44.24707" lon="6.16572">
        <ele>1675.8000488281</ele>
        <time>2021-07-11T08:10:24Z</time>
      </trkpt>
      <trkpt lat="44.24709" lon="6.16582">
        <ele>1677.4000244141</ele>
        <time>2021-07-11T08:10:44Z</time>
      </trkpt>
      <trkpt lat="44.24709" lon="6.16584">
        <ele>1678</ele>
        <time>2021-07-11T08:11:06Z</time>
      </trkpt>
      <trkpt lat="44.24709" lon="6.16586">
        <ele>1678.4000244141</ele>
        <time>2021-07-11T08:11:37Z</time>
      </trkpt>
      <trkpt lat="44.24717" lon="6.16609">
        <ele>1680</ele>
        <time>2021-07-11T08:12:00Z</time>
      </trkpt>
      <trkpt lat="44.2472" lon="6.16626">
        <ele>1683</ele>
        <time>2021-07-11T08:12:18Z</time>
      </trkpt>
      <trkpt lat="44.24723" lon="6.16642">
        <ele>1685.4000244141</ele>
        <time>2021-07-11T08:12:33Z</time>
      </trkpt>
      <trkpt lat="44.24727" lon="6.16665">
        <ele>1687.4000244141</ele>
        <time>2021-07-11T08:12:55Z</time>
      </trkpt>
      <trkpt lat="44.24729" lon="6.16684">
        <ele>1690.5999755859</ele>
        <time>2021-07-11T08:13:18Z</time>
      </trkpt>
      <trkpt lat="44.24733" lon="6.16696">
        <ele>1693.5999755859</ele>
        <time>2021-07-11T08:13:33Z</time>
      </trkpt>
      <trkpt lat="44.24737" lon="6.16707">
        <ele>1696.8000488281</ele>
        <time>2021-07-11T08:13:51Z</time>
      </trkpt>
      <trkpt lat="44.24742" lon="6.16722">
        <ele>1699.8000488281</ele>
        <time>2021-07-11T08:14:11Z</time>
      </trkpt>
      <trkpt lat="44.24744" lon="6.16738">
        <ele>1702.4000244141</ele>
        <time>2021-07-11T08:14:29Z</time>
      </trkpt>
      <trkpt lat="44.24748" lon="6.16753">
        <ele>1705.4000244141</ele>
        <time>2021-07-11T08:14:48Z</time>
      </trkpt>
      <trkpt lat="44.24753" lon="6.16764">
        <ele>1708.5999755859</ele>
        <time>2021-07-11T08:15:08Z</time>
      </trkpt>
      <trkpt lat="44.24755" lon="6.16778">
        <ele>1711.5999755859</ele>
        <time>2021-07-11T08:15:26Z</time>
      </trkpt>
      <trkpt lat="44.24758" lon="6.16791">
        <ele>1714.8000488281</ele>
        <time>2021-07-11T08:15:45Z</time>
      </trkpt>
      <trkpt lat="44.24762" lon="6.16807">
        <ele>1717.8000488281</ele>
        <time>2021-07-11T08:16:03Z</time>
      </trkpt>
      <trkpt lat="44.24766" lon="6.1682">
        <ele>1720.8000488281</ele>
        <time>2021-07-11T08:16:20Z</time>
      </trkpt>
      <trkpt lat="44.2477" lon="6.16836">
        <ele>1723.8000488281</ele>
        <time>2021-07-11T08:16:39Z</time>
      </trkpt>
      <trkpt lat="44.24775" lon="6.16851">
        <ele>1727</ele>
        <time>2021-07-11T08:16:58Z</time>
      </trkpt>
      <trkpt lat="44.24778" lon="6.16869">
        <ele>1729.5999755859</ele>
        <time>2021-07-11T08:17:16Z</time>
      </trkpt>
      <trkpt lat="44.2478" lon="6.16889">
        <ele>1732.8000488281</ele>
        <time>2021-07-11T08:17:34Z</time>
      </trkpt>
      <trkpt lat="44.24784" lon="6.16906">
        <ele>1735.1999511719</ele>
        <time>2021-07-11T08:17:52Z</time>
      </trkpt>
      <trkpt lat="44.24789" lon="6.16924">
        <ele>1738.1999511719</ele>
        <time>2021-07-11T08:18:09Z</time>
      </trkpt>
      <trkpt lat="44.24791" lon="6.16936">
        <ele>1740.1999511719</ele>
        <time>2021-07-11T08:18:22Z</time>
      </trkpt>
      <trkpt lat="44.24791" lon="6.16948">
        <ele>1742.1999511719</ele>
        <time>2021-07-11T08:18:40Z</time>
      </trkpt>
      <trkpt lat="44.24795" lon="6.16961">
        <ele>1744</ele>
        <time>2021-07-11T08:18:59Z</time>
      </trkpt>
      <trkpt lat="44.24796" lon="6.16962">
        <ele>1746.4000244141</ele>
        <time>2021-07-11T08:19:22Z</time>
      </trkpt>
      <trkpt lat="44.24796" lon="6.16966">
        <ele>1746.1999511719</ele>
        <time>2021-07-11T08:19:58Z</time>
      </trkpt>
      <trkpt lat="44.24797" lon="6.16967">
        <ele>1745.8000488281</ele>
        <time>2021-07-11T08:20:44Z</time>
      </trkpt>
      <trkpt lat="44.24802" lon="6.16979">
        <ele>1746.1999511719</ele>
        <time>2021-07-11T08:21:04Z</time>
      </trkpt>
      <trkpt lat="44.24805" lon="6.16984">
        <ele>1746.5999755859</ele>
        <time>2021-07-11T08:21:09Z</time>
      </trkpt>
      <trkpt lat="44.24815" lon="6.17009">
        <ele>1748.1999511719</ele>
        <time>2021-07-11T08:21:32Z</time>
      </trkpt>
      <trkpt lat="44.24818" lon="6.17017">
        <ele>1750</ele>
        <time>2021-07-11T08:21:53Z</time>
      </trkpt>
      <trkpt lat="44.24827" lon="6.17039">
        <ele>1751.5999755859</ele>
        <time>2021-07-11T08:22:15Z</time>
      </trkpt>
      <trkpt lat="44.24834" lon="6.17055">
        <ele>1754.8000488281</ele>
        <time>2021-07-11T08:22:33Z</time>
      </trkpt>
      <trkpt lat="44.24845" lon="6.17054">
        <ele>1756.1999511719</ele>
        <time>2021-07-11T08:22:51Z</time>
      </trkpt>
      <trkpt lat="44.24845" lon="6.1705">
        <ele>1756.1999511719</ele>
        <time>2021-07-11T08:23:17Z</time>
      </trkpt>
      <trkpt lat="44.24844" lon="6.17049">
        <ele>1755.4000244141</ele>
        <time>2021-07-11T08:23:54Z</time>
      </trkpt>
      <trkpt lat="44.24844" lon="6.17049">
        <ele>1755.4000244141</ele>
        <time>2021-07-11T08:24:48Z</time>
      </trkpt>
      <trkpt lat="44.24845" lon="6.17048">
        <ele>1755.1999511719</ele>
        <time>2021-07-11T08:25:32Z</time>
      </trkpt>
      <trkpt lat="44.24845" lon="6.17045">
        <ele>1755</ele>
        <time>2021-07-11T08:26:59Z</time>
      </trkpt>
      <trkpt lat="44.24846" lon="6.17047">
        <ele>1754.8000488281</ele>
        <time>2021-07-11T08:27:33Z</time>
      </trkpt>
      <trkpt lat="44.24847" lon="6.17052">
        <ele>1754.8000488281</ele>
        <time>2021-07-11T08:28:28Z</time>
      </trkpt>
      <trkpt lat="44.24848" lon="6.17051">
        <ele>1754.8000488281</ele>
        <time>2021-07-11T08:29:10Z</time>
      </trkpt>
      <trkpt lat="44.24844" lon="6.17051">
        <ele>1755.4000244141</ele>
        <time>2021-07-11T08:30:11Z</time>
      </trkpt>
      <trkpt lat="44.24849" lon="6.17062">
        <ele>1755.4000244141</ele>
        <time>2021-07-11T08:31:16Z</time>
      </trkpt>
      <trkpt lat="44.24854" lon="6.17084">
        <ele>1754.8000488281</ele>
        <time>2021-07-11T08:31:34Z</time>
      </trkpt>
      <trkpt lat="44.2486" lon="6.17112">
        <ele>1754</ele>
        <time>2021-07-11T08:31:56Z</time>
      </trkpt>
      <trkpt lat="44.24863" lon="6.17127">
        <ele>1753.5999755859</ele>
        <time>2021-07-11T08:32:09Z</time>
      </trkpt>
      <trkpt lat="44.24867" lon="6.17151">
        <ele>1752.8000488281</ele>
        <time>2021-07-11T08:32:27Z</time>
      </trkpt>
      <trkpt lat="44.24869" lon="6.1716">
        <ele>1752.5999755859</ele>
        <time>2021-07-11T08:32:34Z</time>
      </trkpt>
      <trkpt lat="44.24875" lon="6.17184">
        <ele>1751.8000488281</ele>
        <time>2021-07-11T08:32:54Z</time>
      </trkpt>
      <trkpt lat="44.24882" lon="6.17206">
        <ele>1751.5999755859</ele>
        <time>2021-07-11T08:33:16Z</time>
      </trkpt>
      <trkpt lat="44.24886" lon="6.17218">
        <ele>1750.8000488281</ele>
        <time>2021-07-11T08:33:28Z</time>
      </trkpt>
      <trkpt lat="44.24895" lon="6.17232">
        <ele>1749.8000488281</ele>
        <time>2021-07-11T08:33:41Z</time>
      </trkpt>
      <trkpt lat="44.24909" lon="6.17243">
        <ele>1749.5999755859</ele>
        <time>2021-07-11T08:34:01Z</time>
      </trkpt>
      <trkpt lat="44.24924" lon="6.17259">
        <ele>1751.4000244141</ele>
        <time>2021-07-11T08:34:26Z</time>
      </trkpt>
      <trkpt lat="44.24932" lon="6.1728">
        <ele>1754</ele>
        <time>2021-07-11T08:34:49Z</time>
      </trkpt>
      <trkpt lat="44.24939" lon="6.17293">
        <ele>1757</ele>
        <time>2021-07-11T08:35:08Z</time>
      </trkpt>
      <trkpt lat="44.2495" lon="6.17305">
        <ele>1760</ele>
        <time>2021-07-11T08:35:30Z</time>
      </trkpt>
      <trkpt lat="44.2496" lon="6.17323">
        <ele>1762.4000244141</ele>
        <time>2021-07-11T08:35:51Z</time>
      </trkpt>
      <trkpt lat="44.24967" lon="6.17339">
        <ele>1762.8000488281</ele>
        <time>2021-07-11T08:36:06Z</time>
      </trkpt>
      <trkpt lat="44.24975" lon="6.1736">
        <ele>1763.1999511719</ele>
        <time>2021-07-11T08:36:25Z</time>
      </trkpt>
      <trkpt lat="44.24986" lon="6.17381">
        <ele>1763.5999755859</ele>
        <time>2021-07-11T08:36:49Z</time>
      </trkpt>
      <trkpt lat="44.24998" lon="6.17398">
        <ele>1764.1999511719</ele>
        <time>2021-07-11T08:37:12Z</time>
      </trkpt>
      <trkpt lat="44.2501" lon="6.1742">
        <ele>1764.5999755859</ele>
        <time>2021-07-11T08:37:38Z</time>
      </trkpt>
      <trkpt lat="44.2502" lon="6.17445">
        <ele>1764.5999755859</ele>
        <time>2021-07-11T08:38:01Z</time>
      </trkpt>
      <trkpt lat="44.25029" lon="6.17463">
        <ele>1765.8000488281</ele>
        <time>2021-07-11T08:38:20Z</time>
      </trkpt>
      <trkpt lat="44.25032" lon="6.17485">
        <ele>1767.4000244141</ele>
        <time>2021-07-11T08:38:40Z</time>
      </trkpt>
      <trkpt lat="44.25033" lon="6.17504">
        <ele>1770.5999755859</ele>
        <time>2021-07-11T08:39:03Z</time>
      </trkpt>
      <trkpt lat="44.25036" lon="6.17521">
        <ele>1773.8000488281</ele>
        <time>2021-07-11T08:39:20Z</time>
      </trkpt>
      <trkpt lat="44.2504" lon="6.17541">
        <ele>1775.8000488281</ele>
        <time>2021-07-11T08:39:37Z</time>
      </trkpt>
      <trkpt lat="44.25044" lon="6.17565">
        <ele>1777.8000488281</ele>
        <time>2021-07-11T08:40:00Z</time>
      </trkpt>
      <trkpt lat="44.25044" lon="6.17567">
        <ele>1778.5999755859</ele>
        <time>2021-07-11T08:40:27Z</time>
      </trkpt>
      <trkpt lat="44.25047" lon="6.17582">
        <ele>1779</ele>
        <time>2021-07-11T08:40:47Z</time>
      </trkpt>
      <trkpt lat="44.25051" lon="6.17605">
        <ele>1781.5999755859</ele>
        <time>2021-07-11T08:41:08Z</time>
      </trkpt>
      <trkpt lat="44.25054" lon="6.17623">
        <ele>1784.5999755859</ele>
        <time>2021-07-11T08:41:27Z</time>
      </trkpt>
      <trkpt lat="44.25057" lon="6.17641">
        <ele>1787.8000488281</ele>
        <time>2021-07-11T08:41:43Z</time>
      </trkpt>
      <trkpt lat="44.25061" lon="6.17662">
        <ele>1790.8000488281</ele>
        <time>2021-07-11T08:42:05Z</time>
      </trkpt>
      <trkpt lat="44.25064" lon="6.17679">
        <ele>1793.8000488281</ele>
        <time>2021-07-11T08:42:23Z</time>
      </trkpt>
      <trkpt lat="44.25065" lon="6.17702">
        <ele>1796.4000244141</ele>
        <time>2021-07-11T08:42:46Z</time>
      </trkpt>
      <trkpt lat="44.2507" lon="6.17711">
        <ele>1799.1999511719</ele>
        <time>2021-07-11T08:43:05Z</time>
      </trkpt>
      <trkpt lat="44.2508" lon="6.17735">
        <ele>1800.8000488281</ele>
        <time>2021-07-11T08:43:29Z</time>
      </trkpt>
      <trkpt lat="44.25081" lon="6.17743">
        <ele>1801.5999755859</ele>
        <time>2021-07-11T08:43:37Z</time>
      </trkpt>
      <trkpt lat="44.25081" lon="6.17749">
        <ele>1802.1999511719</ele>
        <time>2021-07-11T08:43:42Z</time>
      </trkpt>
      <trkpt lat="44.25081" lon="6.17751">
        <ele>1802.4000244141</ele>
        <time>2021-07-11T08:43:44Z</time>
      </trkpt>
      <trkpt lat="44.25082" lon="6.17771">
        <ele>1803.4000244141</ele>
        <time>2021-07-11T08:44:02Z</time>
      </trkpt>
      <trkpt lat="44.25085" lon="6.17786">
        <ele>1806.4000244141</ele>
        <time>2021-07-11T08:44:23Z</time>
      </trkpt>
      <trkpt lat="44.25087" lon="6.17801">
        <ele>1809.4000244141</ele>
        <time>2021-07-11T08:44:40Z</time>
      </trkpt>
      <trkpt lat="44.25088" lon="6.17819">
        <ele>1812.5999755859</ele>
        <time>2021-07-11T08:45:01Z</time>
      </trkpt>
      <trkpt lat="44.25092" lon="6.17837">
        <ele>1815.8000488281</ele>
        <time>2021-07-11T08:45:21Z</time>
      </trkpt>
      <trkpt lat="44.25093" lon="6.17859">
        <ele>1818.8000488281</ele>
        <time>2021-07-11T08:45:44Z</time>
      </trkpt>
      <trkpt lat="44.25093" lon="6.17871">
        <ele>1820.1999511719</ele>
        <time>2021-07-11T08:45:55Z</time>
      </trkpt>
      <trkpt lat="44.25095" lon="6.17895">
        <ele>1820.5999755859</ele>
        <time>2021-07-11T08:46:13Z</time>
      </trkpt>
      <trkpt lat="44.25096" lon="6.17916">
        <ele>1823.5999755859</ele>
        <time>2021-07-11T08:46:36Z</time>
      </trkpt>
      <trkpt lat="44.25099" lon="6.17931">
        <ele>1826.8000488281</ele>
        <time>2021-07-11T08:46:54Z</time>
      </trkpt>
      <trkpt lat="44.25099" lon="6.17938">
        <ele>1829.1999511719</ele>
        <time>2021-07-11T08:47:19Z</time>
      </trkpt>
      <trkpt lat="44.251" lon="6.17941">
        <ele>1829</ele>
        <time>2021-07-11T08:48:32Z</time>
      </trkpt>
      <trkpt lat="44.25103" lon="6.17964">
        <ele>1830.8000488281</ele>
        <time>2021-07-11T08:48:55Z</time>
      </trkpt>
      <trkpt lat="44.25103" lon="6.17966">
        <ele>1831</ele>
        <time>2021-07-11T08:48:57Z</time>
      </trkpt>
      <trkpt lat="44.25101" lon="6.1799">
        <ele>1833</ele>
        <time>2021-07-11T08:49:17Z</time>
      </trkpt>
      <trkpt lat="44.25103" lon="6.18012">
        <ele>1834.5999755859</ele>
        <time>2021-07-11T08:49:34Z</time>
      </trkpt>
      <trkpt lat="44.25108" lon="6.18035">
        <ele>1835.8000488281</ele>
        <time>2021-07-11T08:49:53Z</time>
      </trkpt>
      <trkpt lat="44.25109" lon="6.18038">
        <ele>1836</ele>
        <time>2021-07-11T08:49:56Z</time>
      </trkpt>
      <trkpt lat="44.25111" lon="6.1806">
        <ele>1837.5999755859</ele>
        <time>2021-07-11T08:50:14Z</time>
      </trkpt>
      <trkpt lat="44.25111" lon="6.18082">
        <ele>1839.4000244141</ele>
        <time>2021-07-11T08:50:34Z</time>
      </trkpt>
      <trkpt lat="44.25123" lon="6.18098">
        <ele>1841.8000488281</ele>
        <time>2021-07-11T08:50:54Z</time>
      </trkpt>
      <trkpt lat="44.25126" lon="6.18102">
        <ele>1843.8000488281</ele>
        <time>2021-07-11T08:51:17Z</time>
      </trkpt>
      <trkpt lat="44.25139" lon="6.18131">
        <ele>1845.5999755859</ele>
        <time>2021-07-11T08:51:49Z</time>
      </trkpt>
      <trkpt lat="44.25145" lon="6.18144">
        <ele>1848.8000488281</ele>
        <time>2021-07-11T08:52:07Z</time>
      </trkpt>
      <trkpt lat="44.2515" lon="6.18157">
        <ele>1851.1999511719</ele>
        <time>2021-07-11T08:52:24Z</time>
      </trkpt>
      <trkpt lat="44.25154" lon="6.18174">
        <ele>1854.4000244141</ele>
        <time>2021-07-11T08:52:44Z</time>
      </trkpt>
      <trkpt lat="44.2516" lon="6.18193">
        <ele>1857.1999511719</ele>
        <time>2021-07-11T08:53:06Z</time>
      </trkpt>
      <trkpt lat="44.25164" lon="6.18206">
        <ele>1860.1999511719</ele>
        <time>2021-07-11T08:53:23Z</time>
      </trkpt>
      <trkpt lat="44.25169" lon="6.18215">
        <ele>1863.4000244141</ele>
        <time>2021-07-11T08:53:42Z</time>
      </trkpt>
      <trkpt lat="44.25174" lon="6.18226">
        <ele>1866.4000244141</ele>
        <time>2021-07-11T08:54:00Z</time>
      </trkpt>
      <trkpt lat="44.25182" lon="6.18239">
        <ele>1869.5999755859</ele>
        <time>2021-07-11T08:54:21Z</time>
      </trkpt>
      <trkpt lat="44.25187" lon="6.18259">
        <ele>1872</ele>
        <time>2021-07-11T08:54:46Z</time>
      </trkpt>
      <trkpt lat="44.25192" lon="6.18265">
        <ele>1875</ele>
        <time>2021-07-11T08:55:04Z</time>
      </trkpt>
      <trkpt lat="44.25198" lon="6.18268">
        <ele>1878.1999511719</ele>
        <time>2021-07-11T08:55:20Z</time>
      </trkpt>
      <trkpt lat="44.25205" lon="6.18268">
        <ele>1881.1999511719</ele>
        <time>2021-07-11T08:55:37Z</time>
      </trkpt>
      <trkpt lat="44.25214" lon="6.18267">
        <ele>1884.1999511719</ele>
        <time>2021-07-11T08:55:57Z</time>
      </trkpt>
      <trkpt lat="44.2522" lon="6.18265">
        <ele>1887.4000244141</ele>
        <time>2021-07-11T08:56:12Z</time>
      </trkpt>
      <trkpt lat="44.25225" lon="6.18265">
        <ele>1889.4000244141</ele>
        <time>2021-07-11T08:56:36Z</time>
      </trkpt>
      <trkpt lat="44.25233" lon="6.18269">
        <ele>1890</ele>
        <time>2021-07-11T08:57:16Z</time>
      </trkpt>
      <trkpt lat="44.25234" lon="6.18268">
        <ele>1890.5999755859</ele>
        <time>2021-07-11T08:57:35Z</time>
      </trkpt>
      <trkpt lat="44.25228" lon="6.18268">
        <ele>1891</ele>
        <time>2021-07-11T08:58:13Z</time>
      </trkpt>
      <trkpt lat="44.25217" lon="6.18265">
        <ele>1889.4000244141</ele>
        <time>2021-07-11T08:58:34Z</time>
      </trkpt>
      <trkpt lat="44.25216" lon="6.18266">
        <ele>1889.1999511719</ele>
        <time>2021-07-11T08:59:04Z</time>
      </trkpt>
      <trkpt lat="44.25221" lon="6.18276">
        <ele>1890</ele>
        <time>2021-07-11T08:59:25Z</time>
      </trkpt>
      <trkpt lat="44.25226" lon="6.1829">
        <ele>1893</ele>
        <time>2021-07-11T08:59:45Z</time>
      </trkpt>
      <trkpt lat="44.25225" lon="6.18289">
        <ele>1893.8000488281</ele>
        <time>2021-07-11T09:00:35Z</time>
      </trkpt>
      <trkpt lat="44.25227" lon="6.18293">
        <ele>1893.8000488281</ele>
        <time>2021-07-11T09:01:02Z</time>
      </trkpt>
      <trkpt lat="44.25231" lon="6.18309">
        <ele>1894.5999755859</ele>
        <time>2021-07-11T09:01:25Z</time>
      </trkpt>
      <trkpt lat="44.2524" lon="6.18324">
        <ele>1896.8000488281</ele>
        <time>2021-07-11T09:01:44Z</time>
      </trkpt>
      <trkpt lat="44.25247" lon="6.18337">
        <ele>1900</ele>
        <time>2021-07-11T09:02:03Z</time>
      </trkpt>
      <trkpt lat="44.25252" lon="6.18354">
        <ele>1901.8000488281</ele>
        <time>2021-07-11T09:02:19Z</time>
      </trkpt>
      <trkpt lat="44.25258" lon="6.18367">
        <ele>1903.5999755859</ele>
        <time>2021-07-11T09:02:38Z</time>
      </trkpt>
      <trkpt lat="44.25268" lon="6.18373">
        <ele>1906.8000488281</ele>
        <time>2021-07-11T09:02:56Z</time>
      </trkpt>
      <trkpt lat="44.2528" lon="6.18377">
        <ele>1909.1999511719</ele>
        <time>2021-07-11T09:03:14Z</time>
      </trkpt>
      <trkpt lat="44.25291" lon="6.18375">
        <ele>1908.4000244141</ele>
        <time>2021-07-11T09:03:27Z</time>
      </trkpt>
      <trkpt lat="44.253" lon="6.18375">
        <ele>1908.5999755859</ele>
        <time>2021-07-11T09:03:38Z</time>
      </trkpt>
      <trkpt lat="44.25302" lon="6.18375">
        <ele>1908.5999755859</ele>
        <time>2021-07-11T09:03:40Z</time>
      </trkpt>
      <trkpt lat="44.25313" lon="6.18365">
        <ele>1908.5999755859</ele>
        <time>2021-07-11T09:03:58Z</time>
      </trkpt>
      <trkpt lat="44.25313" lon="6.18364">
        <ele>1909.5999755859</ele>
        <time>2021-07-11T09:04:21Z</time>
      </trkpt>
      <trkpt lat="44.25321" lon="6.18364">
        <ele>1909.1999511719</ele>
        <time>2021-07-11T09:05:12Z</time>
      </trkpt>
      <trkpt lat="44.25327" lon="6.18363">
        <ele>1910.4000244141</ele>
        <time>2021-07-11T09:05:32Z</time>
      </trkpt>
      <trkpt lat="44.25328" lon="6.18363">
        <ele>1910.5999755859</ele>
        <time>2021-07-11T09:06:18Z</time>
      </trkpt>
      <trkpt lat="44.25329" lon="6.18364">
        <ele>1910.8000488281</ele>
        <time>2021-07-11T09:06:50Z</time>
      </trkpt>
      <trkpt lat="44.25328" lon="6.18364">
        <ele>1910.4000244141</ele>
        <time>2021-07-11T09:07:41Z</time>
      </trkpt>
      <trkpt lat="44.25327" lon="6.18363">
        <ele>1910.4000244141</ele>
        <time>2021-07-11T09:09:02Z</time>
      </trkpt>
      <trkpt lat="44.25327" lon="6.18364">
        <ele>1910.4000244141</ele>
        <time>2021-07-11T09:09:46Z</time>
      </trkpt>
      <trkpt lat="44.25326" lon="6.18364">
        <ele>1910.4000244141</ele>
        <time>2021-07-11T09:10:27Z</time>
      </trkpt>
      <trkpt lat="44.25334" lon="6.1837">
        <ele>1910.1999511719</ele>
        <time>2021-07-11T09:10:44Z</time>
      </trkpt>
      <trkpt lat="44.25339" lon="6.18379">
        <ele>1908.8000488281</ele>
        <time>2021-07-11T09:11:03Z</time>
      </trkpt>
      <trkpt lat="44.25346" lon="6.18392">
        <ele>1908.1999511719</ele>
        <time>2021-07-11T09:11:19Z</time>
      </trkpt>
      <trkpt lat="44.25348" lon="6.18394">
        <ele>1908</ele>
        <time>2021-07-11T09:11:22Z</time>
      </trkpt>
      <trkpt lat="44.25353" lon="6.18398">
        <ele>1907.1999511719</ele>
        <time>2021-07-11T09:11:28Z</time>
      </trkpt>
      <trkpt lat="44.25362" lon="6.18411">
        <ele>1905.5999755859</ele>
        <time>2021-07-11T09:11:49Z</time>
      </trkpt>
      <trkpt lat="44.25362" lon="6.18416">
        <ele>1905.5999755859</ele>
        <time>2021-07-11T09:11:53Z</time>
      </trkpt>
      <trkpt lat="44.25373" lon="6.18434">
        <ele>1905</ele>
        <time>2021-07-11T09:12:10Z</time>
      </trkpt>
      <trkpt lat="44.25389" lon="6.18438">
        <ele>1905.1999511719</ele>
        <time>2021-07-11T09:12:26Z</time>
      </trkpt>
      <trkpt lat="44.25404" lon="6.1844">
        <ele>1905.8000488281</ele>
        <time>2021-07-11T09:12:42Z</time>
      </trkpt>
      <trkpt lat="44.25406" lon="6.18441">
        <ele>1906</ele>
        <time>2021-07-11T09:12:46Z</time>
      </trkpt>
      <trkpt lat="44.25421" lon="6.18445">
        <ele>1908</ele>
        <time>2021-07-11T09:13:05Z</time>
      </trkpt>
      <trkpt lat="44.25432" lon="6.18452">
        <ele>1909.8000488281</ele>
        <time>2021-07-11T09:13:23Z</time>
      </trkpt>
      <trkpt lat="44.25444" lon="6.18457">
        <ele>1911.5999755859</ele>
        <time>2021-07-11T09:13:41Z</time>
      </trkpt>
      <trkpt lat="44.25461" lon="6.18463">
        <ele>1914.4000244141</ele>
        <time>2021-07-11T09:14:06Z</time>
      </trkpt>
      <trkpt lat="44.25472" lon="6.1847">
        <ele>1916.1999511719</ele>
        <time>2021-07-11T09:14:23Z</time>
      </trkpt>
      <trkpt lat="44.25476" lon="6.1848">
        <ele>1917.1999511719</ele>
        <time>2021-07-11T09:14:38Z</time>
      </trkpt>
      <trkpt lat="44.25484" lon="6.18497">
        <ele>1918.8000488281</ele>
        <time>2021-07-11T09:14:54Z</time>
      </trkpt>
      <trkpt lat="44.25485" lon="6.185">
        <ele>1919</ele>
        <time>2021-07-11T09:14:57Z</time>
      </trkpt>
      <trkpt lat="44.25497" lon="6.18512">
        <ele>1921</ele>
        <time>2021-07-11T09:15:15Z</time>
      </trkpt>
      <trkpt lat="44.25505" lon="6.18526">
        <ele>1923.8000488281</ele>
        <time>2021-07-11T09:15:36Z</time>
      </trkpt>
      <trkpt lat="44.25514" lon="6.18538">
        <ele>1927</ele>
        <time>2021-07-11T09:15:55Z</time>
      </trkpt>
      <trkpt lat="44.25518" lon="6.18547">
        <ele>1928.8000488281</ele>
        <time>2021-07-11T09:16:13Z</time>
      </trkpt>
      <trkpt lat="44.25523" lon="6.18556">
        <ele>1929.8000488281</ele>
        <time>2021-07-11T09:16:30Z</time>
      </trkpt>
      <trkpt lat="44.25531" lon="6.18572">
        <ele>1932.8000488281</ele>
        <time>2021-07-11T09:16:52Z</time>
      </trkpt>
      <trkpt lat="44.25537" lon="6.18585">
        <ele>1935.1999511719</ele>
        <time>2021-07-11T09:17:11Z</time>
      </trkpt>
      <trkpt lat="44.25541" lon="6.18595">
        <ele>1938.1999511719</ele>
        <time>2021-07-11T09:17:28Z</time>
      </trkpt>
      <trkpt lat="44.25546" lon="6.18608">
        <ele>1941.1999511719</ele>
        <time>2021-07-11T09:17:48Z</time>
      </trkpt>
      <trkpt lat="44.25552" lon="6.18621">
        <ele>1944.1999511719</ele>
        <time>2021-07-11T09:18:07Z</time>
      </trkpt>
      <trkpt lat="44.2556" lon="6.18634">
        <ele>1947.1999511719</ele>
        <time>2021-07-11T09:18:29Z</time>
      </trkpt>
      <trkpt lat="44.25566" lon="6.18639">
        <ele>1950.4000244141</ele>
        <time>2021-07-11T09:18:48Z</time>
      </trkpt>
      <trkpt lat="44.25566" lon="6.18639">
        <ele>1950.4000244141</ele>
        <time>2021-07-11T09:19:43Z</time>
      </trkpt>
      <trkpt lat="44.25564" lon="6.18638">
        <ele>1950.8000488281</ele>
        <time>2021-07-11T09:20:55Z</time>
      </trkpt>
      <trkpt lat="44.25566" lon="6.18643">
        <ele>1951.1999511719</ele>
        <time>2021-07-11T09:22:06Z</time>
      </trkpt>
      <trkpt lat="44.25572" lon="6.18649">
        <ele>1951.8000488281</ele>
        <time>2021-07-11T09:22:49Z</time>
      </trkpt>
      <trkpt lat="44.25577" lon="6.18656">
        <ele>1953.5999755859</ele>
        <time>2021-07-11T09:23:13Z</time>
      </trkpt>
      <trkpt lat="44.25581" lon="6.18662">
        <ele>1956.1999511719</ele>
        <time>2021-07-11T09:23:35Z</time>
      </trkpt>
      <trkpt lat="44.25592" lon="6.18672">
        <ele>1957</ele>
        <time>2021-07-11T09:24:00Z</time>
      </trkpt>
      <trkpt lat="44.25603" lon="6.18684">
        <ele>1958.5999755859</ele>
        <time>2021-07-11T09:24:16Z</time>
      </trkpt>
      <trkpt lat="44.25616" lon="6.18696">
        <ele>1959.5999755859</ele>
        <time>2021-07-11T09:24:34Z</time>
      </trkpt>
      <trkpt lat="44.2563" lon="6.18708">
        <ele>1961.1999511719</ele>
        <time>2021-07-11T09:24:51Z</time>
      </trkpt>
      <trkpt lat="44.25642" lon="6.18717">
        <ele>1962.1999511719</ele>
        <time>2021-07-11T09:25:05Z</time>
      </trkpt>
      <trkpt lat="44.2565" lon="6.1873">
        <ele>1963.8000488281</ele>
        <time>2021-07-11T09:25:21Z</time>
      </trkpt>
      <trkpt lat="44.25657" lon="6.18745">
        <ele>1966.5999755859</ele>
        <time>2021-07-11T09:25:37Z</time>
      </trkpt>
      <trkpt lat="44.25667" lon="6.18762">
        <ele>1969.5999755859</ele>
        <time>2021-07-11T09:25:56Z</time>
      </trkpt>
      <trkpt lat="44.25678" lon="6.18775">
        <ele>1973</ele>
        <time>2021-07-11T09:26:17Z</time>
      </trkpt>
      <trkpt lat="44.25685" lon="6.18792">
        <ele>1975.8000488281</ele>
        <time>2021-07-11T09:26:35Z</time>
      </trkpt>
      <trkpt lat="44.25694" lon="6.18813">
        <ele>1978.1999511719</ele>
        <time>2021-07-11T09:26:55Z</time>
      </trkpt>
      <trkpt lat="44.25702" lon="6.18828">
        <ele>1979.8000488281</ele>
        <time>2021-07-11T09:27:10Z</time>
      </trkpt>
      <trkpt lat="44.25716" lon="6.18847">
        <ele>1982.4000244141</ele>
        <time>2021-07-11T09:27:33Z</time>
      </trkpt>
      <trkpt lat="44.25725" lon="6.18857">
        <ele>1983.5999755859</ele>
        <time>2021-07-11T09:27:46Z</time>
      </trkpt>
      <trkpt lat="44.25736" lon="6.1887">
        <ele>1985.4000244141</ele>
        <time>2021-07-11T09:28:04Z</time>
      </trkpt>
      <trkpt lat="44.25749" lon="6.18883">
        <ele>1987.4000244141</ele>
        <time>2021-07-11T09:28:21Z</time>
      </trkpt>
      <trkpt lat="44.25761" lon="6.18893">
        <ele>1988.4000244141</ele>
        <time>2021-07-11T09:28:36Z</time>
      </trkpt>
      <trkpt lat="44.25762" lon="6.18895">
        <ele>1988.4000244141</ele>
        <time>2021-07-11T09:28:38Z</time>
      </trkpt>
      <trkpt lat="44.25773" lon="6.18904">
        <ele>1989.5999755859</ele>
        <time>2021-07-11T09:28:51Z</time>
      </trkpt>
      <trkpt lat="44.25786" lon="6.18911">
        <ele>1990.1999511719</ele>
        <time>2021-07-11T09:29:06Z</time>
      </trkpt>
      <trkpt lat="44.25803" lon="6.18926">
        <ele>1991.4000244141</ele>
        <time>2021-07-11T09:29:26Z</time>
      </trkpt>
      <trkpt lat="44.25809" lon="6.18929">
        <ele>1992</ele>
        <time>2021-07-11T09:29:32Z</time>
      </trkpt>
      <trkpt lat="44.25816" lon="6.18931">
        <ele>1993.1999511719</ele>
        <time>2021-07-11T09:29:56Z</time>
      </trkpt>
      <trkpt lat="44.25819" lon="6.18932">
        <ele>1993.5999755859</ele>
        <time>2021-07-11T09:30:21Z</time>
      </trkpt>
      <trkpt lat="44.25823" lon="6.18935">
        <ele>1994</ele>
        <time>2021-07-11T09:31:04Z</time>
      </trkpt>
      <trkpt lat="44.25827" lon="6.18936">
        <ele>1993.8000488281</ele>
        <time>2021-07-11T09:31:27Z</time>
      </trkpt>
      <trkpt lat="44.25838" lon="6.18944">
        <ele>1993.4000244141</ele>
        <time>2021-07-11T09:31:53Z</time>
      </trkpt>
      <trkpt lat="44.2584" lon="6.18945">
        <ele>1993.4000244141</ele>
        <time>2021-07-11T09:31:55Z</time>
      </trkpt>
      <trkpt lat="44.25846" lon="6.18952">
        <ele>1993.1999511719</ele>
        <time>2021-07-11T09:32:03Z</time>
      </trkpt>
      <trkpt lat="44.25858" lon="6.18964">
        <ele>1992.1999511719</ele>
        <time>2021-07-11T09:32:17Z</time>
      </trkpt>
      <trkpt lat="44.2586" lon="6.18966">
        <ele>1991.8000488281</ele>
        <time>2021-07-11T09:32:20Z</time>
      </trkpt>
      <trkpt lat="44.25872" lon="6.18978">
        <ele>1991.1999511719</ele>
        <time>2021-07-11T09:32:36Z</time>
      </trkpt>
      <trkpt lat="44.25877" lon="6.18987">
        <ele>1991.4000244141</ele>
        <time>2021-07-11T09:32:45Z</time>
      </trkpt>
      <trkpt lat="44.25889" lon="6.19002">
        <ele>1991.5999755859</ele>
        <time>2021-07-11T09:33:02Z</time>
      </trkpt>
      <trkpt lat="44.25902" lon="6.19021">
        <ele>1994.1999511719</ele>
        <time>2021-07-11T09:33:23Z</time>
      </trkpt>
      <trkpt lat="44.25911" lon="6.19033">
        <ele>1997.4000244141</ele>
        <time>2021-07-11T09:33:41Z</time>
      </trkpt>
      <trkpt lat="44.25917" lon="6.19043">
        <ele>2000.4000244141</ele>
        <time>2021-07-11T09:33:56Z</time>
      </trkpt>
      <trkpt lat="44.2593" lon="6.19052">
        <ele>2003.4000244141</ele>
        <time>2021-07-11T09:34:16Z</time>
      </trkpt>
      <trkpt lat="44.25943" lon="6.19058">
        <ele>2005.5999755859</ele>
        <time>2021-07-11T09:34:33Z</time>
      </trkpt>
      <trkpt lat="44.25955" lon="6.19071">
        <ele>2008.1999511719</ele>
        <time>2021-07-11T09:34:54Z</time>
      </trkpt>
      <trkpt lat="44.2596" lon="6.19091">
        <ele>2010.1999511719</ele>
        <time>2021-07-11T09:35:14Z</time>
      </trkpt>
      <trkpt lat="44.25963" lon="6.191">
        <ele>2010.8000488281</ele>
        <time>2021-07-11T09:35:23Z</time>
      </trkpt>
      <trkpt lat="44.2597" lon="6.19114">
        <ele>2011.4000244141</ele>
        <time>2021-07-11T09:35:39Z</time>
      </trkpt>
      <trkpt lat="44.25981" lon="6.19124">
        <ele>2013</ele>
        <time>2021-07-11T09:35:57Z</time>
      </trkpt>
      <trkpt lat="44.25991" lon="6.19134">
        <ele>2015</ele>
        <time>2021-07-11T09:36:15Z</time>
      </trkpt>
      <trkpt lat="44.25998" lon="6.1915">
        <ele>2017.4000244141</ele>
        <time>2021-07-11T09:36:31Z</time>
      </trkpt>
      <trkpt lat="44.26007" lon="6.19166">
        <ele>2019.1999511719</ele>
        <time>2021-07-11T09:36:49Z</time>
      </trkpt>
      <trkpt lat="44.26017" lon="6.1918">
        <ele>2021.4000244141</ele>
        <time>2021-07-11T09:37:08Z</time>
      </trkpt>
      <trkpt lat="44.26032" lon="6.19192">
        <ele>2024</ele>
        <time>2021-07-11T09:37:30Z</time>
      </trkpt>
      <trkpt lat="44.26038" lon="6.19196">
        <ele>2025.4000244141</ele>
        <time>2021-07-11T09:37:47Z</time>
      </trkpt>
      <trkpt lat="44.26039" lon="6.19199">
        <ele>2025.8000488281</ele>
        <time>2021-07-11T09:38:26Z</time>
      </trkpt>
      <trkpt lat="44.2604" lon="6.192">
        <ele>2025.1999511719</ele>
        <time>2021-07-11T09:38:51Z</time>
      </trkpt>
      <trkpt lat="44.2604" lon="6.19201">
        <ele>2025.1999511719</ele>
        <time>2021-07-11T09:38:53Z</time>
      </trkpt>
      <trkpt lat="44.26042" lon="6.19203">
        <ele>2025.1999511719</ele>
        <time>2021-07-11T09:38:56Z</time>
      </trkpt>
      <trkpt lat="44.26053" lon="6.19215">
        <ele>2024.8000488281</ele>
        <time>2021-07-11T09:39:09Z</time>
      </trkpt>
      <trkpt lat="44.2606" lon="6.19237">
        <ele>2025.8000488281</ele>
        <time>2021-07-11T09:39:28Z</time>
      </trkpt>
      <trkpt lat="44.26064" lon="6.19241">
        <ele>2028</ele>
        <time>2021-07-11T09:39:48Z</time>
      </trkpt>
      <trkpt lat="44.26065" lon="6.19244">
        <ele>2028.1999511719</ele>
        <time>2021-07-11T09:40:15Z</time>
      </trkpt>
      <trkpt lat="44.26068" lon="6.1925">
        <ele>2028.1999511719</ele>
        <time>2021-07-11T09:40:53Z</time>
      </trkpt>
      <trkpt lat="44.26077" lon="6.19269">
        <ele>2027</ele>
        <time>2021-07-11T09:41:09Z</time>
      </trkpt>
      <trkpt lat="44.26081" lon="6.19279">
        <ele>2026.8000488281</ele>
        <time>2021-07-11T09:41:17Z</time>
      </trkpt>
      <trkpt lat="44.26095" lon="6.19297">
        <ele>2029.1999511719</ele>
        <time>2021-07-11T09:41:39Z</time>
      </trkpt>
      <trkpt lat="44.26109" lon="6.19312">
        <ele>2031.8000488281</ele>
        <time>2021-07-11T09:42:01Z</time>
      </trkpt>
      <trkpt lat="44.26123" lon="6.19325">
        <ele>2034.5999755859</ele>
        <time>2021-07-11T09:42:22Z</time>
      </trkpt>
      <trkpt lat="44.26137" lon="6.1934">
        <ele>2037.5999755859</ele>
        <time>2021-07-11T09:42:45Z</time>
      </trkpt>
      <trkpt lat="44.26148" lon="6.1935">
        <ele>2040.4000244141</ele>
        <time>2021-07-11T09:43:07Z</time>
      </trkpt>
      <trkpt lat="44.26158" lon="6.19354">
        <ele>2042.4000244141</ele>
        <time>2021-07-11T09:43:34Z</time>
      </trkpt>
      <trkpt lat="44.26165" lon="6.19369">
        <ele>2045.4000244141</ele>
        <time>2021-07-11T09:43:55Z</time>
      </trkpt>
      <trkpt lat="44.26169" lon="6.19382">
        <ele>2048.3999023438</ele>
        <time>2021-07-11T09:44:10Z</time>
      </trkpt>
      <trkpt lat="44.26172" lon="6.19399">
        <ele>2051.3999023438</ele>
        <time>2021-07-11T09:44:29Z</time>
      </trkpt>
      <trkpt lat="44.26173" lon="6.19412">
        <ele>2054.3999023438</ele>
        <time>2021-07-11T09:44:47Z</time>
      </trkpt>
      <trkpt lat="44.26173" lon="6.19427">
        <ele>2056.8000488281</ele>
        <time>2021-07-11T09:45:07Z</time>
      </trkpt>
      <trkpt lat="44.2618" lon="6.19442">
        <ele>2060</ele>
        <time>2021-07-11T09:45:34Z</time>
      </trkpt>
      <trkpt lat="44.26184" lon="6.19449">
        <ele>2063</ele>
        <time>2021-07-11T09:45:50Z</time>
      </trkpt>
      <trkpt lat="44.26188" lon="6.19458">
        <ele>2066</ele>
        <time>2021-07-11T09:46:14Z</time>
      </trkpt>
      <trkpt lat="44.26194" lon="6.19469">
        <ele>2068.8000488281</ele>
        <time>2021-07-11T09:46:37Z</time>
      </trkpt>
      <trkpt lat="44.26202" lon="6.19478">
        <ele>2071.8000488281</ele>
        <time>2021-07-11T09:46:58Z</time>
      </trkpt>
      <trkpt lat="44.26212" lon="6.19485">
        <ele>2074.8000488281</ele>
        <time>2021-07-11T09:47:15Z</time>
      </trkpt>
      <trkpt lat="44.26222" lon="6.19489">
        <ele>2077.8000488281</ele>
        <time>2021-07-11T09:47:34Z</time>
      </trkpt>
      <trkpt lat="44.26224" lon="6.1949">
        <ele>2080.1999511719</ele>
        <time>2021-07-11T09:47:54Z</time>
      </trkpt>
      <trkpt lat="44.26237" lon="6.1949">
        <ele>2081.6000976562</ele>
        <time>2021-07-11T09:48:24Z</time>
      </trkpt>
      <trkpt lat="44.26255" lon="6.19487">
        <ele>2084.6000976562</ele>
        <time>2021-07-11T09:48:50Z</time>
      </trkpt>
      <trkpt lat="44.26266" lon="6.19481">
        <ele>2087.6000976562</ele>
        <time>2021-07-11T09:49:11Z</time>
      </trkpt>
      <trkpt lat="44.26273" lon="6.19475">
        <ele>2089</ele>
        <time>2021-07-11T09:49:39Z</time>
      </trkpt>
      <trkpt lat="44.26277" lon="6.19468">
        <ele>2091.1999511719</ele>
        <time>2021-07-11T09:50:01Z</time>
      </trkpt>
      <trkpt lat="44.26285" lon="6.19453">
        <ele>2092.8000488281</ele>
        <time>2021-07-11T09:50:29Z</time>
      </trkpt>
      <trkpt lat="44.2629" lon="6.19444">
        <ele>2095.3999023438</ele>
        <time>2021-07-11T09:50:52Z</time>
      </trkpt>
      <trkpt lat="44.26288" lon="6.1944">
        <ele>2095.8000488281</ele>
        <time>2021-07-11T09:51:02Z</time>
      </trkpt>
      <trkpt lat="44.26286" lon="6.19428">
        <ele>2097.3999023438</ele>
        <time>2021-07-11T09:51:24Z</time>
      </trkpt>
      <trkpt lat="44.2629" lon="6.19431">
        <ele>2097.6000976562</ele>
        <time>2021-07-11T09:51:43Z</time>
      </trkpt>
      <trkpt lat="44.2631" lon="6.19438">
        <ele>2096.6000976562</ele>
        <time>2021-07-11T09:52:01Z</time>
      </trkpt>
      <trkpt lat="44.26326" lon="6.1944">
        <ele>2096.6000976562</ele>
        <time>2021-07-11T09:52:18Z</time>
      </trkpt>
      <trkpt lat="44.26339" lon="6.19435">
        <ele>2096.1999511719</ele>
        <time>2021-07-11T09:52:33Z</time>
      </trkpt>
      <trkpt lat="44.26343" lon="6.19427">
        <ele>2097</ele>
        <time>2021-07-11T09:52:48Z</time>
      </trkpt>
      <trkpt lat="44.26341" lon="6.19422">
        <ele>2097.6000976562</ele>
        <time>2021-07-11T09:53:11Z</time>
      </trkpt>
      <trkpt lat="44.26342" lon="6.19426">
        <ele>2097</ele>
        <time>2021-07-11T09:53:59Z</time>
      </trkpt>
      <trkpt lat="44.26344" lon="6.19429">
        <ele>2096.8000488281</ele>
        <time>2021-07-11T09:54:03Z</time>
      </trkpt>
      <trkpt lat="44.26358" lon="6.19454">
        <ele>2095</ele>
        <time>2021-07-11T09:54:26Z</time>
      </trkpt>
      <trkpt lat="44.26362" lon="6.19457">
        <ele>2093</ele>
        <time>2021-07-11T09:54:44Z</time>
      </trkpt>
      <trkpt lat="44.26362" lon="6.19457">
        <ele>2092.8000488281</ele>
        <time>2021-07-11T09:55:34Z</time>
      </trkpt>
      <trkpt lat="44.26362" lon="6.19457">
        <ele>2093</ele>
        <time>2021-07-11T09:56:01Z</time>
      </trkpt>
      <trkpt lat="44.26358" lon="6.19453">
        <ele>2093.1999511719</ele>
        <time>2021-07-11T09:56:31Z</time>
      </trkpt>
      <trkpt lat="44.26357" lon="6.19453">
        <ele>2093.3999023438</ele>
        <time>2021-07-11T09:57:21Z</time>
      </trkpt>
      <trkpt lat="44.26358" lon="6.19454">
        <ele>2093.1999511719</ele>
        <time>2021-07-11T09:58:01Z</time>
      </trkpt>
      <trkpt lat="44.26362" lon="6.1946">
        <ele>2092.3999023438</ele>
        <time>2021-07-11T09:58:46Z</time>
      </trkpt>
      <trkpt lat="44.26359" lon="6.19457">
        <ele>2092.3999023438</ele>
        <time>2021-07-11T09:59:15Z</time>
      </trkpt>
      <trkpt lat="44.26365" lon="6.1945">
        <ele>2092.3999023438</ele>
        <time>2021-07-11T09:59:41Z</time>
      </trkpt>
      <trkpt lat="44.26369" lon="6.19444">
        <ele>2092.1999511719</ele>
        <time>2021-07-11T10:00:04Z</time>
      </trkpt>
      <trkpt lat="44.26379" lon="6.19442">
        <ele>2091.6000976562</ele>
        <time>2021-07-11T10:00:29Z</time>
      </trkpt>
      <trkpt lat="44.2639" lon="6.19436">
        <ele>2088.3999023438</ele>
        <time>2021-07-11T10:00:46Z</time>
      </trkpt>
      <trkpt lat="44.26401" lon="6.19431">
        <ele>2085.1999511719</ele>
        <time>2021-07-11T10:01:02Z</time>
      </trkpt>
      <trkpt lat="44.2641" lon="6.1943">
        <ele>2082.1999511719</ele>
        <time>2021-07-11T10:01:13Z</time>
      </trkpt>
      <trkpt lat="44.26412" lon="6.19428">
        <ele>2081.8000488281</ele>
        <time>2021-07-11T10:01:16Z</time>
      </trkpt>
      <trkpt lat="44.26425" lon="6.1941">
        <ele>2079.1999511719</ele>
        <time>2021-07-11T10:01:39Z</time>
      </trkpt>
      <trkpt lat="44.26436" lon="6.19393">
        <ele>2081.3999023438</ele>
        <time>2021-07-11T10:02:01Z</time>
      </trkpt>
      <trkpt lat="44.26436" lon="6.19375">
        <ele>2084.3999023438</ele>
        <time>2021-07-11T10:02:23Z</time>
      </trkpt>
      <trkpt lat="44.26436" lon="6.19368">
        <ele>2086.1999511719</ele>
        <time>2021-07-11T10:02:38Z</time>
      </trkpt>
      <trkpt lat="44.26438" lon="6.19369">
        <ele>2085.8000488281</ele>
        <time>2021-07-11T10:03:35Z</time>
      </trkpt>
      <trkpt lat="44.26437" lon="6.19371">
        <ele>2085.8000488281</ele>
        <time>2021-07-11T10:04:59Z</time>
      </trkpt>
      <trkpt lat="44.26436" lon="6.19372">
        <ele>2085.3999023438</ele>
        <time>2021-07-11T10:06:39Z</time>
      </trkpt>
      <trkpt lat="44.26437" lon="6.19372">
        <ele>2085.1999511719</ele>
        <time>2021-07-11T10:07:27Z</time>
      </trkpt>
      <trkpt lat="44.26437" lon="6.19371">
        <ele>2085</ele>
        <time>2021-07-11T10:08:15Z</time>
      </trkpt>
      <trkpt lat="44.26437" lon="6.19371">
        <ele>2085.6000976562</ele>
        <time>2021-07-11T10:13:32Z</time>
      </trkpt>
      <trkpt lat="44.26438" lon="6.19372">
        <ele>2085.3999023438</ele>
        <time>2021-07-11T10:15:50Z</time>
      </trkpt>
      <trkpt lat="44.26438" lon="6.19372">
        <ele>2085</ele>
        <time>2021-07-11T10:19:42Z</time>
      </trkpt>
      <trkpt lat="44.26437" lon="6.19371">
        <ele>2085</ele>
        <time>2021-07-11T10:23:10Z</time>
      </trkpt>
      <trkpt lat="44.26437" lon="6.19371">
        <ele>2084.8000488281</ele>
        <time>2021-07-11T10:23:42Z</time>
      </trkpt>
      <trkpt lat="44.26437" lon="6.1937">
        <ele>2084.3999023438</ele>
        <time>2021-07-11T10:26:54Z</time>
      </trkpt>
      <trkpt lat="44.26439" lon="6.19372">
        <ele>2084.1999511719</ele>
        <time>2021-07-11T10:27:39Z</time>
      </trkpt>
      <trkpt lat="44.26438" lon="6.19372">
        <ele>2084.3999023438</ele>
        <time>2021-07-11T10:28:11Z</time>
      </trkpt>
      <trkpt lat="44.26436" lon="6.1937">
        <ele>2083.1999511719</ele>
        <time>2021-07-11T10:31:17Z</time>
      </trkpt>
      <trkpt lat="44.26436" lon="6.1937">
        <ele>2083.1999511719</ele>
        <time>2021-07-11T10:34:09Z</time>
      </trkpt>
      <trkpt lat="44.26436" lon="6.1937">
        <ele>2082.8000488281</ele>
        <time>2021-07-11T10:35:30Z</time>
      </trkpt>
      <trkpt lat="44.26435" lon="6.19369">
        <ele>2083</ele>
        <time>2021-07-11T10:39:42Z</time>
      </trkpt>
      <trkpt lat="44.26435" lon="6.1937">
        <ele>2081.8000488281</ele>
        <time>2021-07-11T10:43:21Z</time>
      </trkpt>
      <trkpt lat="44.26435" lon="6.19371">
        <ele>2081.3999023438</ele>
        <time>2021-07-11T10:48:42Z</time>
      </trkpt>
      <trkpt lat="44.26435" lon="6.1937">
        <ele>2081</ele>
        <time>2021-07-11T11:03:59Z</time>
      </trkpt>
      <trkpt lat="44.26436" lon="6.1937">
        <ele>2080.1999511719</ele>
        <time>2021-07-11T11:05:30Z</time>
      </trkpt>
      <trkpt lat="44.26435" lon="6.19368">
        <ele>2080.1999511719</ele>
        <time>2021-07-11T11:06:34Z</time>
      </trkpt>
      <trkpt lat="44.26434" lon="6.19368">
        <ele>2081.6000976562</ele>
        <time>2021-07-11T11:07:15Z</time>
      </trkpt>
      <trkpt lat="44.26433" lon="6.19369">
        <ele>2081.6000976562</ele>
        <time>2021-07-11T11:07:33Z</time>
      </trkpt>
      <trkpt lat="44.26437" lon="6.19372">
        <ele>2081.8000488281</ele>
        <time>2021-07-11T11:08:09Z</time>
      </trkpt>
      <trkpt lat="44.26441" lon="6.19387">
        <ele>2080.1999511719</ele>
        <time>2021-07-11T11:08:27Z</time>
      </trkpt>
      <trkpt lat="44.26442" lon="6.19394">
        <ele>2079</ele>
        <time>2021-07-11T11:08:33Z</time>
      </trkpt>
      <trkpt lat="44.26449" lon="6.19414">
        <ele>2076</ele>
        <time>2021-07-11T11:08:54Z</time>
      </trkpt>
      <trkpt lat="44.26463" lon="6.19426">
        <ele>2073</ele>
        <time>2021-07-11T11:09:15Z</time>
      </trkpt>
      <trkpt lat="44.26467" lon="6.19428">
        <ele>2073</ele>
        <time>2021-07-11T11:09:20Z</time>
      </trkpt>
      <trkpt lat="44.26477" lon="6.19437">
        <ele>2074</ele>
        <time>2021-07-11T11:09:36Z</time>
      </trkpt>
      <trkpt lat="44.26488" lon="6.19446">
        <ele>2073.6000976562</ele>
        <time>2021-07-11T11:09:51Z</time>
      </trkpt>
      <trkpt lat="44.26502" lon="6.19449">
        <ele>2073.6000976562</ele>
        <time>2021-07-11T11:10:10Z</time>
      </trkpt>
      <trkpt lat="44.2652" lon="6.19451">
        <ele>2074.6000976562</ele>
        <time>2021-07-11T11:10:30Z</time>
      </trkpt>
      <trkpt lat="44.26532" lon="6.19452">
        <ele>2077</ele>
        <time>2021-07-11T11:10:52Z</time>
      </trkpt>
      <trkpt lat="44.2654" lon="6.19452">
        <ele>2079.8000488281</ele>
        <time>2021-07-11T11:11:08Z</time>
      </trkpt>
      <trkpt lat="44.2655" lon="6.19453">
        <ele>2082.6000976562</ele>
        <time>2021-07-11T11:11:25Z</time>
      </trkpt>
      <trkpt lat="44.2656" lon="6.19448">
        <ele>2084.8000488281</ele>
        <time>2021-07-11T11:11:44Z</time>
      </trkpt>
      <trkpt lat="44.26561" lon="6.19447">
        <ele>2085</ele>
        <time>2021-07-11T11:11:46Z</time>
      </trkpt>
      <trkpt lat="44.26564" lon="6.19444">
        <ele>2085</ele>
        <time>2021-07-11T11:11:51Z</time>
      </trkpt>
      <trkpt lat="44.26575" lon="6.19427">
        <ele>2084</ele>
        <time>2021-07-11T11:12:13Z</time>
      </trkpt>
      <trkpt lat="44.26576" lon="6.19426">
        <ele>2083.8000488281</ele>
        <time>2021-07-11T11:12:15Z</time>
      </trkpt>
      <trkpt lat="44.26585" lon="6.19416">
        <ele>2081.3999023438</ele>
        <time>2021-07-11T11:12:31Z</time>
      </trkpt>
      <trkpt lat="44.26588" lon="6.19407">
        <ele>2079.6000976562</ele>
        <time>2021-07-11T11:12:41Z</time>
      </trkpt>
      <trkpt lat="44.26597" lon="6.19398">
        <ele>2076.1999511719</ele>
        <time>2021-07-11T11:12:55Z</time>
      </trkpt>
      <trkpt lat="44.26603" lon="6.19393">
        <ele>2075.8000488281</ele>
        <time>2021-07-11T11:13:12Z</time>
      </trkpt>
      <trkpt lat="44.26609" lon="6.19383">
        <ele>2075.8000488281</ele>
        <time>2021-07-11T11:13:30Z</time>
      </trkpt>
      <trkpt lat="44.2661" lon="6.19375">
        <ele>2075.1999511719</ele>
        <time>2021-07-11T11:13:49Z</time>
      </trkpt>
      <trkpt lat="44.26613" lon="6.19365">
        <ele>2074.3999023438</ele>
        <time>2021-07-11T11:14:06Z</time>
      </trkpt>
      <trkpt lat="44.26618" lon="6.19353">
        <ele>2071.3999023438</ele>
        <time>2021-07-11T11:14:23Z</time>
      </trkpt>
      <trkpt lat="44.26624" lon="6.19355">
        <ele>2069.1999511719</ele>
        <time>2021-07-11T11:14:40Z</time>
      </trkpt>
      <trkpt lat="44.2663" lon="6.19359">
        <ele>2067.6000976562</ele>
        <time>2021-07-11T11:14:53Z</time>
      </trkpt>
      <trkpt lat="44.26635" lon="6.19352">
        <ele>2065</ele>
        <time>2021-07-11T11:15:08Z</time>
      </trkpt>
      <trkpt lat="44.26643" lon="6.19347">
        <ele>2062</ele>
        <time>2021-07-11T11:15:20Z</time>
      </trkpt>
      <trkpt lat="44.26644" lon="6.19343">
        <ele>2059.6000976562</ele>
        <time>2021-07-11T11:15:39Z</time>
      </trkpt>
      <trkpt lat="44.26647" lon="6.19337">
        <ele>2057.8000488281</ele>
        <time>2021-07-11T11:15:54Z</time>
      </trkpt>
      <trkpt lat="44.26645" lon="6.1933">
        <ele>2055.3999023438</ele>
        <time>2021-07-11T11:16:09Z</time>
      </trkpt>
      <trkpt lat="44.26647" lon="6.19317">
        <ele>2052.3999023438</ele>
        <time>2021-07-11T11:16:28Z</time>
      </trkpt>
      <trkpt lat="44.26649" lon="6.19308">
        <ele>2049.1999511719</ele>
        <time>2021-07-11T11:16:41Z</time>
      </trkpt>
      <trkpt lat="44.26655" lon="6.19296">
        <ele>2046.1999511719</ele>
        <time>2021-07-11T11:16:58Z</time>
      </trkpt>
      <trkpt lat="44.26658" lon="6.19288">
        <ele>2043</ele>
        <time>2021-07-11T11:17:16Z</time>
      </trkpt>
      <trkpt lat="44.26662" lon="6.19282">
        <ele>2042.1999511719</ele>
        <time>2021-07-11T11:17:24Z</time>
      </trkpt>
      <trkpt lat="44.26673" lon="6.1927">
        <ele>2040.5999755859</ele>
        <time>2021-07-11T11:17:39Z</time>
      </trkpt>
      <trkpt lat="44.26677" lon="6.19259">
        <ele>2042</ele>
        <time>2021-07-11T11:17:54Z</time>
      </trkpt>
      <trkpt lat="44.26679" lon="6.19253">
        <ele>2041</ele>
        <time>2021-07-11T11:18:16Z</time>
      </trkpt>
      <trkpt lat="44.26684" lon="6.19252">
        <ele>2038</ele>
        <time>2021-07-11T11:18:36Z</time>
      </trkpt>
      <trkpt lat="44.26687" lon="6.19245">
        <ele>2035.5999755859</ele>
        <time>2021-07-11T11:18:54Z</time>
      </trkpt>
      <trkpt lat="44.26693" lon="6.19241">
        <ele>2033.1999511719</ele>
        <time>2021-07-11T11:19:09Z</time>
      </trkpt>
      <trkpt lat="44.26697" lon="6.19232">
        <ele>2030.8000488281</ele>
        <time>2021-07-11T11:19:26Z</time>
      </trkpt>
      <trkpt lat="44.26701" lon="6.19229">
        <ele>2027.8000488281</ele>
        <time>2021-07-11T11:19:44Z</time>
      </trkpt>
      <trkpt lat="44.2671" lon="6.19225">
        <ele>2025.4000244141</ele>
        <time>2021-07-11T11:19:59Z</time>
      </trkpt>
      <trkpt lat="44.26713" lon="6.19217">
        <ele>2023.4000244141</ele>
        <time>2021-07-11T11:20:13Z</time>
      </trkpt>
      <trkpt lat="44.26715" lon="6.19215">
        <ele>2022.4000244141</ele>
        <time>2021-07-11T11:20:17Z</time>
      </trkpt>
      <trkpt lat="44.26722" lon="6.19207">
        <ele>2020.1999511719</ele>
        <time>2021-07-11T11:20:32Z</time>
      </trkpt>
      <trkpt lat="44.2673" lon="6.19199">
        <ele>2018.4000244141</ele>
        <time>2021-07-11T11:20:45Z</time>
      </trkpt>
      <trkpt lat="44.26737" lon="6.19184">
        <ele>2017.1999511719</ele>
        <time>2021-07-11T11:21:01Z</time>
      </trkpt>
      <trkpt lat="44.26744" lon="6.19178">
        <ele>2016.5999755859</ele>
        <time>2021-07-11T11:21:17Z</time>
      </trkpt>
      <trkpt lat="44.2675" lon="6.1917">
        <ele>2014.4000244141</ele>
        <time>2021-07-11T11:21:33Z</time>
      </trkpt>
      <trkpt lat="44.26756" lon="6.1916">
        <ele>2011.5999755859</ele>
        <time>2021-07-11T11:21:47Z</time>
      </trkpt>
      <trkpt lat="44.26761" lon="6.19145">
        <ele>2008.8000488281</ele>
        <time>2021-07-11T11:22:07Z</time>
      </trkpt>
      <trkpt lat="44.26766" lon="6.19126">
        <ele>2007.8000488281</ele>
        <time>2021-07-11T11:22:27Z</time>
      </trkpt>
      <trkpt lat="44.26762" lon="6.19108">
        <ele>2007</ele>
        <time>2021-07-11T11:22:49Z</time>
      </trkpt>
      <trkpt lat="44.26763" lon="6.19094">
        <ele>2006.4000244141</ele>
        <time>2021-07-11T11:23:04Z</time>
      </trkpt>
      <trkpt lat="44.26764" lon="6.19093">
        <ele>2006</ele>
        <time>2021-07-11T11:23:06Z</time>
      </trkpt>
      <trkpt lat="44.26772" lon="6.19082">
        <ele>2004.1999511719</ele>
        <time>2021-07-11T11:23:22Z</time>
      </trkpt>
      <trkpt lat="44.26778" lon="6.19073">
        <ele>2001.8000488281</ele>
        <time>2021-07-11T11:23:40Z</time>
      </trkpt>
      <trkpt lat="44.26788" lon="6.19058">
        <ele>1999.4000244141</ele>
        <time>2021-07-11T11:24:00Z</time>
      </trkpt>
      <trkpt lat="44.26796" lon="6.19045">
        <ele>1998.8000488281</ele>
        <time>2021-07-11T11:24:17Z</time>
      </trkpt>
      <trkpt lat="44.26802" lon="6.19042">
        <ele>1998.8000488281</ele>
        <time>2021-07-11T11:24:27Z</time>
      </trkpt>
      <trkpt lat="44.26816" lon="6.19031">
        <ele>1998.5999755859</ele>
        <time>2021-07-11T11:24:48Z</time>
      </trkpt>
      <trkpt lat="44.26818" lon="6.19023">
        <ele>1997.8000488281</ele>
        <time>2021-07-11T11:25:07Z</time>
      </trkpt>
      <trkpt lat="44.26819" lon="6.1901">
        <ele>1996.4000244141</ele>
        <time>2021-07-11T11:25:31Z</time>
      </trkpt>
      <trkpt lat="44.26817" lon="6.18997">
        <ele>1993.5999755859</ele>
        <time>2021-07-11T11:25:48Z</time>
      </trkpt>
      <trkpt lat="44.26819" lon="6.1898">
        <ele>1991.4000244141</ele>
        <time>2021-07-11T11:26:04Z</time>
      </trkpt>
      <trkpt lat="44.26828" lon="6.18971">
        <ele>1988.8000488281</ele>
        <time>2021-07-11T11:26:19Z</time>
      </trkpt>
      <trkpt lat="44.26836" lon="6.18958">
        <ele>1986.4000244141</ele>
        <time>2021-07-11T11:26:38Z</time>
      </trkpt>
      <trkpt lat="44.26839" lon="6.18952">
        <ele>1985.1999511719</ele>
        <time>2021-07-11T11:26:46Z</time>
      </trkpt>
      <trkpt lat="44.26839" lon="6.18945">
        <ele>1984.5999755859</ele>
        <time>2021-07-11T11:26:51Z</time>
      </trkpt>
      <trkpt lat="44.2684" lon="6.18941">
        <ele>1984</ele>
        <time>2021-07-11T11:26:54Z</time>
      </trkpt>
      <trkpt lat="44.26835" lon="6.18918">
        <ele>1981.1999511719</ele>
        <time>2021-07-11T11:27:14Z</time>
      </trkpt>
      <trkpt lat="44.26839" lon="6.18898">
        <ele>1981.5999755859</ele>
        <time>2021-07-11T11:27:32Z</time>
      </trkpt>
      <trkpt lat="44.26844" lon="6.18872">
        <ele>1978.5999755859</ele>
        <time>2021-07-11T11:27:54Z</time>
      </trkpt>
      <trkpt lat="44.26848" lon="6.18845">
        <ele>1976.1999511719</ele>
        <time>2021-07-11T11:28:17Z</time>
      </trkpt>
      <trkpt lat="44.26848" lon="6.18839">
        <ele>1975.5999755859</ele>
        <time>2021-07-11T11:28:22Z</time>
      </trkpt>
      <trkpt lat="44.26854" lon="6.18827">
        <ele>1973</ele>
        <time>2021-07-11T11:28:38Z</time>
      </trkpt>
      <trkpt lat="44.26861" lon="6.18814">
        <ele>1969.8000488281</ele>
        <time>2021-07-11T11:28:59Z</time>
      </trkpt>
      <trkpt lat="44.26865" lon="6.18799">
        <ele>1967.5999755859</ele>
        <time>2021-07-11T11:29:16Z</time>
      </trkpt>
      <trkpt lat="44.26868" lon="6.1879">
        <ele>1965.8000488281</ele>
        <time>2021-07-11T11:29:24Z</time>
      </trkpt>
      <trkpt lat="44.26868" lon="6.18767">
        <ele>1962.5999755859</ele>
        <time>2021-07-11T11:29:42Z</time>
      </trkpt>
      <trkpt lat="44.26868" lon="6.18764">
        <ele>1962.4000244141</ele>
        <time>2021-07-11T11:29:44Z</time>
      </trkpt>
      <trkpt lat="44.26875" lon="6.18738">
        <ele>1960</ele>
        <time>2021-07-11T11:30:04Z</time>
      </trkpt>
      <trkpt lat="44.26881" lon="6.1872">
        <ele>1958.1999511719</ele>
        <time>2021-07-11T11:30:23Z</time>
      </trkpt>
      <trkpt lat="44.26885" lon="6.18705">
        <ele>1955.4000244141</ele>
        <time>2021-07-11T11:30:41Z</time>
      </trkpt>
      <trkpt lat="44.26891" lon="6.18703">
        <ele>1952.4000244141</ele>
        <time>2021-07-11T11:30:56Z</time>
      </trkpt>
      <trkpt lat="44.26894" lon="6.18703">
        <ele>1949.1999511719</ele>
        <time>2021-07-11T11:31:10Z</time>
      </trkpt>
      <trkpt lat="44.26903" lon="6.187">
        <ele>1947</ele>
        <time>2021-07-11T11:31:27Z</time>
      </trkpt>
      <trkpt lat="44.26911" lon="6.18694">
        <ele>1943.8000488281</ele>
        <time>2021-07-11T11:31:39Z</time>
      </trkpt>
      <trkpt lat="44.26918" lon="6.18688">
        <ele>1940.5999755859</ele>
        <time>2021-07-11T11:31:51Z</time>
      </trkpt>
      <trkpt lat="44.26926" lon="6.18684">
        <ele>1937.5999755859</ele>
        <time>2021-07-11T11:32:04Z</time>
      </trkpt>
      <trkpt lat="44.26925" lon="6.18684">
        <ele>1934.4000244141</ele>
        <time>2021-07-11T11:32:11Z</time>
      </trkpt>
      <trkpt lat="44.26933" lon="6.18678">
        <ele>1931.4000244141</ele>
        <time>2021-07-11T11:32:28Z</time>
      </trkpt>
      <trkpt lat="44.26939" lon="6.18674">
        <ele>1930.4000244141</ele>
        <time>2021-07-11T11:32:37Z</time>
      </trkpt>
      <trkpt lat="44.26946" lon="6.18668">
        <ele>1928.4000244141</ele>
        <time>2021-07-11T11:32:43Z</time>
      </trkpt>
      <trkpt lat="44.26953" lon="6.18661">
        <ele>1925</ele>
        <time>2021-07-11T11:32:55Z</time>
      </trkpt>
      <trkpt lat="44.26959" lon="6.18651">
        <ele>1922.8000488281</ele>
        <time>2021-07-11T11:33:06Z</time>
      </trkpt>
      <trkpt lat="44.26964" lon="6.18639">
        <ele>1919.1999511719</ele>
        <time>2021-07-11T11:33:18Z</time>
      </trkpt>
      <trkpt lat="44.26974" lon="6.18628">
        <ele>1915.8000488281</ele>
        <time>2021-07-11T11:33:30Z</time>
      </trkpt>
      <trkpt lat="44.2698" lon="6.18624">
        <ele>1912.8000488281</ele>
        <time>2021-07-11T11:33:46Z</time>
      </trkpt>
      <trkpt lat="44.26992" lon="6.18616">
        <ele>1909.8000488281</ele>
        <time>2021-07-11T11:34:06Z</time>
      </trkpt>
      <trkpt lat="44.2699" lon="6.18609">
        <ele>1907.1999511719</ele>
        <time>2021-07-11T11:34:22Z</time>
      </trkpt>
      <trkpt lat="44.2699" lon="6.18601">
        <ele>1904.4000244141</ele>
        <time>2021-07-11T11:34:47Z</time>
      </trkpt>
      <trkpt lat="44.26989" lon="6.18595">
        <ele>1901.8000488281</ele>
        <time>2021-07-11T11:35:07Z</time>
      </trkpt>
      <trkpt lat="44.26988" lon="6.18591">
        <ele>1900</ele>
        <time>2021-07-11T11:35:24Z</time>
      </trkpt>
      <trkpt lat="44.26991" lon="6.18585">
        <ele>1898</ele>
        <time>2021-07-11T11:35:43Z</time>
      </trkpt>
      <trkpt lat="44.26992" lon="6.18578">
        <ele>1894.8000488281</ele>
        <time>2021-07-11T11:36:06Z</time>
      </trkpt>
      <trkpt lat="44.26995" lon="6.18573">
        <ele>1891.8000488281</ele>
        <time>2021-07-11T11:36:27Z</time>
      </trkpt>
      <trkpt lat="44.26986" lon="6.18564">
        <ele>1889</ele>
        <time>2021-07-11T11:36:46Z</time>
      </trkpt>
      <trkpt lat="44.26986" lon="6.18556">
        <ele>1886.8000488281</ele>
        <time>2021-07-11T11:37:03Z</time>
      </trkpt>
      <trkpt lat="44.26987" lon="6.18543">
        <ele>1884.1999511719</ele>
        <time>2021-07-11T11:37:19Z</time>
      </trkpt>
      <trkpt lat="44.26994" lon="6.18538">
        <ele>1881.8000488281</ele>
        <time>2021-07-11T11:37:34Z</time>
      </trkpt>
      <trkpt lat="44.26991" lon="6.18528">
        <ele>1878.5999755859</ele>
        <time>2021-07-11T11:37:51Z</time>
      </trkpt>
      <trkpt lat="44.26985" lon="6.1852">
        <ele>1875.4000244141</ele>
        <time>2021-07-11T11:38:10Z</time>
      </trkpt>
      <trkpt lat="44.26978" lon="6.18511">
        <ele>1873</ele>
        <time>2021-07-11T11:38:31Z</time>
      </trkpt>
      <trkpt lat="44.26978" lon="6.18504">
        <ele>1870.1999511719</ele>
        <time>2021-07-11T11:38:52Z</time>
      </trkpt>
      <trkpt lat="44.2698" lon="6.185">
        <ele>1867.1999511719</ele>
        <time>2021-07-11T11:39:12Z</time>
      </trkpt>
      <trkpt lat="44.26981" lon="6.18488">
        <ele>1865</ele>
        <time>2021-07-11T11:39:33Z</time>
      </trkpt>
      <trkpt lat="44.26983" lon="6.18475">
        <ele>1861.8000488281</ele>
        <time>2021-07-11T11:39:47Z</time>
      </trkpt>
      <trkpt lat="44.2698" lon="6.18465">
        <ele>1858.8000488281</ele>
        <time>2021-07-11T11:40:07Z</time>
      </trkpt>
      <trkpt lat="44.2698" lon="6.18459">
        <ele>1855.5999755859</ele>
        <time>2021-07-11T11:40:34Z</time>
      </trkpt>
      <trkpt lat="44.26976" lon="6.18451">
        <ele>1853.4000244141</ele>
        <time>2021-07-11T11:41:01Z</time>
      </trkpt>
      <trkpt lat="44.26976" lon="6.18442">
        <ele>1850.1999511719</ele>
        <time>2021-07-11T11:41:19Z</time>
      </trkpt>
      <trkpt lat="44.26975" lon="6.18433">
        <ele>1847.1999511719</ele>
        <time>2021-07-11T11:41:33Z</time>
      </trkpt>
      <trkpt lat="44.26974" lon="6.18424">
        <ele>1844.1999511719</ele>
        <time>2021-07-11T11:41:50Z</time>
      </trkpt>
      <trkpt lat="44.26977" lon="6.18414">
        <ele>1841.8000488281</ele>
        <time>2021-07-11T11:42:05Z</time>
      </trkpt>
      <trkpt lat="44.26976" lon="6.18403">
        <ele>1838.8000488281</ele>
        <time>2021-07-11T11:42:19Z</time>
      </trkpt>
      <trkpt lat="44.26975" lon="6.18399">
        <ele>1836.8000488281</ele>
        <time>2021-07-11T11:42:27Z</time>
      </trkpt>
      <trkpt lat="44.26974" lon="6.18381">
        <ele>1833.5999755859</ele>
        <time>2021-07-11T11:42:46Z</time>
      </trkpt>
      <trkpt lat="44.26971" lon="6.18371">
        <ele>1830.4000244141</ele>
        <time>2021-07-11T11:42:56Z</time>
      </trkpt>
      <trkpt lat="44.26972" lon="6.18361">
        <ele>1827.4000244141</ele>
        <time>2021-07-11T11:43:09Z</time>
      </trkpt>
      <trkpt lat="44.26972" lon="6.18357">
        <ele>1824.5999755859</ele>
        <time>2021-07-11T11:43:31Z</time>
      </trkpt>
      <trkpt lat="44.26972" lon="6.1834">
        <ele>1823.8000488281</ele>
        <time>2021-07-11T11:44:25Z</time>
      </trkpt>
      <trkpt lat="44.26971" lon="6.18328">
        <ele>1822.4000244141</ele>
        <time>2021-07-11T11:44:35Z</time>
      </trkpt>
      <trkpt lat="44.26969" lon="6.18314">
        <ele>1821.1999511719</ele>
        <time>2021-07-11T11:44:45Z</time>
      </trkpt>
      <trkpt lat="44.26965" lon="6.18286">
        <ele>1818.1999511719</ele>
        <time>2021-07-11T11:45:04Z</time>
      </trkpt>
      <trkpt lat="44.26963" lon="6.18265">
        <ele>1815</ele>
        <time>2021-07-11T11:45:17Z</time>
      </trkpt>
      <trkpt lat="44.26956" lon="6.18234">
        <ele>1812.5999755859</ele>
        <time>2021-07-11T11:45:37Z</time>
      </trkpt>
      <trkpt lat="44.26954" lon="6.18225">
        <ele>1812.4000244141</ele>
        <time>2021-07-11T11:45:54Z</time>
      </trkpt>
      <trkpt lat="44.26948" lon="6.18199">
        <ele>1813.4000244141</ele>
        <time>2021-07-11T11:46:11Z</time>
      </trkpt>
      <trkpt lat="44.26949" lon="6.18195">
        <ele>1814</ele>
        <time>2021-07-11T11:46:14Z</time>
      </trkpt>
      <trkpt lat="44.26944" lon="6.18169">
        <ele>1814.5999755859</ele>
        <time>2021-07-11T11:46:30Z</time>
      </trkpt>
      <trkpt lat="44.26939" lon="6.18156">
        <ele>1815.4000244141</ele>
        <time>2021-07-11T11:46:40Z</time>
      </trkpt>
      <trkpt lat="44.26936" lon="6.18142">
        <ele>1816.1999511719</ele>
        <time>2021-07-11T11:46:50Z</time>
      </trkpt>
      <trkpt lat="44.26935" lon="6.18136">
        <ele>1816.1999511719</ele>
        <time>2021-07-11T11:46:54Z</time>
      </trkpt>
      <trkpt lat="44.26934" lon="6.18123">
        <ele>1816.4000244141</ele>
        <time>2021-07-11T11:47:04Z</time>
      </trkpt>
      <trkpt lat="44.26932" lon="6.18105">
        <ele>1818.1999511719</ele>
        <time>2021-07-11T11:47:18Z</time>
      </trkpt>
      <trkpt lat="44.2693" lon="6.18078">
        <ele>1819.1999511719</ele>
        <time>2021-07-11T11:47:39Z</time>
      </trkpt>
      <trkpt lat="44.26928" lon="6.18068">
        <ele>1820.1999511719</ele>
        <time>2021-07-11T11:47:46Z</time>
      </trkpt>
      <trkpt lat="44.26928" lon="6.18039">
        <ele>1821.1999511719</ele>
        <time>2021-07-11T11:48:04Z</time>
      </trkpt>
      <trkpt lat="44.26923" lon="6.18014">
        <ele>1820.8000488281</ele>
        <time>2021-07-11T11:48:19Z</time>
      </trkpt>
      <trkpt lat="44.2692" lon="6.17989">
        <ele>1820.4000244141</ele>
        <time>2021-07-11T11:48:36Z</time>
      </trkpt>
      <trkpt lat="44.26918" lon="6.17967">
        <ele>1820.1999511719</ele>
        <time>2021-07-11T11:48:50Z</time>
      </trkpt>
      <trkpt lat="44.26914" lon="6.17947">
        <ele>1820</ele>
        <time>2021-07-11T11:49:02Z</time>
      </trkpt>
      <trkpt lat="44.26908" lon="6.17925">
        <ele>1819.5999755859</ele>
        <time>2021-07-11T11:49:24Z</time>
      </trkpt>
      <trkpt lat="44.26907" lon="6.17922">
        <ele>1819.5999755859</ele>
        <time>2021-07-11T11:49:28Z</time>
      </trkpt>
      <trkpt lat="44.26907" lon="6.17918">
        <ele>1819.5999755859</ele>
        <time>2021-07-11T11:49:31Z</time>
      </trkpt>
      <trkpt lat="44.26903" lon="6.17899">
        <ele>1819.8000488281</ele>
        <time>2021-07-11T11:49:45Z</time>
      </trkpt>
      <trkpt lat="44.26902" lon="6.17872">
        <ele>1819.5999755859</ele>
        <time>2021-07-11T11:50:05Z</time>
      </trkpt>
      <trkpt lat="44.26901" lon="6.17854">
        <ele>1819</ele>
        <time>2021-07-11T11:50:20Z</time>
      </trkpt>
      <trkpt lat="44.269" lon="6.17851">
        <ele>1819</ele>
        <time>2021-07-11T11:50:23Z</time>
      </trkpt>
      <trkpt lat="44.269" lon="6.17846">
        <ele>1818.5999755859</ele>
        <time>2021-07-11T11:50:27Z</time>
      </trkpt>
      <trkpt lat="44.26898" lon="6.17824">
        <ele>1817.1999511719</ele>
        <time>2021-07-11T11:50:41Z</time>
      </trkpt>
      <trkpt lat="44.269" lon="6.17802">
        <ele>1816.5999755859</ele>
        <time>2021-07-11T11:50:57Z</time>
      </trkpt>
      <trkpt lat="44.26896" lon="6.17788">
        <ele>1816.4000244141</ele>
        <time>2021-07-11T11:51:11Z</time>
      </trkpt>
      <trkpt lat="44.26895" lon="6.1777">
        <ele>1814.5999755859</ele>
        <time>2021-07-11T11:51:24Z</time>
      </trkpt>
      <trkpt lat="44.26897" lon="6.17743">
        <ele>1813.4000244141</ele>
        <time>2021-07-11T11:51:42Z</time>
      </trkpt>
      <trkpt lat="44.26896" lon="6.17739">
        <ele>1813</ele>
        <time>2021-07-11T11:51:45Z</time>
      </trkpt>
      <trkpt lat="44.26892" lon="6.17723">
        <ele>1811.5999755859</ele>
        <time>2021-07-11T11:51:56Z</time>
      </trkpt>
      <trkpt lat="44.26894" lon="6.17698">
        <ele>1811.4000244141</ele>
        <time>2021-07-11T11:52:15Z</time>
      </trkpt>
      <trkpt lat="44.26896" lon="6.17672">
        <ele>1811</ele>
        <time>2021-07-11T11:52:33Z</time>
      </trkpt>
      <trkpt lat="44.26893" lon="6.17647">
        <ele>1808.5999755859</ele>
        <time>2021-07-11T11:52:50Z</time>
      </trkpt>
      <trkpt lat="44.26893" lon="6.17629">
        <ele>1807</ele>
        <time>2021-07-11T11:53:10Z</time>
      </trkpt>
      <trkpt lat="44.26893" lon="6.17619">
        <ele>1807</ele>
        <time>2021-07-11T11:53:25Z</time>
      </trkpt>
      <trkpt lat="44.26898" lon="6.17597">
        <ele>1805.4000244141</ele>
        <time>2021-07-11T11:53:45Z</time>
      </trkpt>
      <trkpt lat="44.26896" lon="6.17578">
        <ele>1803.8000488281</ele>
        <time>2021-07-11T11:53:59Z</time>
      </trkpt>
      <trkpt lat="44.26893" lon="6.17559">
        <ele>1803.4000244141</ele>
        <time>2021-07-11T11:54:18Z</time>
      </trkpt>
      <trkpt lat="44.26891" lon="6.17537">
        <ele>1803.1999511719</ele>
        <time>2021-07-11T11:54:37Z</time>
      </trkpt>
      <trkpt lat="44.26892" lon="6.17533">
        <ele>1803.1999511719</ele>
        <time>2021-07-11T11:54:40Z</time>
      </trkpt>
      <trkpt lat="44.26894" lon="6.17515">
        <ele>1801.5999755859</ele>
        <time>2021-07-11T11:54:56Z</time>
      </trkpt>
      <trkpt lat="44.26894" lon="6.17513">
        <ele>1801.5999755859</ele>
        <time>2021-07-11T11:54:57Z</time>
      </trkpt>
      <trkpt lat="44.26891" lon="6.17487">
        <ele>1799.5999755859</ele>
        <time>2021-07-11T11:55:17Z</time>
      </trkpt>
      <trkpt lat="44.2689" lon="6.17462">
        <ele>1797.8000488281</ele>
        <time>2021-07-11T11:55:35Z</time>
      </trkpt>
      <trkpt lat="44.2689" lon="6.17452">
        <ele>1796.5999755859</ele>
        <time>2021-07-11T11:55:42Z</time>
      </trkpt>
      <trkpt lat="44.26892" lon="6.17443">
        <ele>1796</ele>
        <time>2021-07-11T11:55:49Z</time>
      </trkpt>
      <trkpt lat="44.26892" lon="6.17438">
        <ele>1795.8000488281</ele>
        <time>2021-07-11T11:55:52Z</time>
      </trkpt>
      <trkpt lat="44.26893" lon="6.1743">
        <ele>1795.4000244141</ele>
        <time>2021-07-11T11:55:57Z</time>
      </trkpt>
      <trkpt lat="44.26899" lon="6.1741">
        <ele>1793.1999511719</ele>
        <time>2021-07-11T11:56:11Z</time>
      </trkpt>
      <trkpt lat="44.26903" lon="6.17389">
        <ele>1790.1999511719</ele>
        <time>2021-07-11T11:56:26Z</time>
      </trkpt>
      <trkpt lat="44.2691" lon="6.17362">
        <ele>1787</ele>
        <time>2021-07-11T11:56:45Z</time>
      </trkpt>
      <trkpt lat="44.26916" lon="6.17341">
        <ele>1786.5999755859</ele>
        <time>2021-07-11T11:57:02Z</time>
      </trkpt>
      <trkpt lat="44.26918" lon="6.17329">
        <ele>1786.4000244141</ele>
        <time>2021-07-11T11:57:16Z</time>
      </trkpt>
      <trkpt lat="44.26921" lon="6.17313">
        <ele>1784.4000244141</ele>
        <time>2021-07-11T11:57:33Z</time>
      </trkpt>
      <trkpt lat="44.26921" lon="6.17307">
        <ele>1784.1999511719</ele>
        <time>2021-07-11T11:57:40Z</time>
      </trkpt>
      <trkpt lat="44.26922" lon="6.17297">
        <ele>1783.1999511719</ele>
        <time>2021-07-11T11:57:48Z</time>
      </trkpt>
      <trkpt lat="44.26923" lon="6.17293">
        <ele>1783</ele>
        <time>2021-07-11T11:57:51Z</time>
      </trkpt>
      <trkpt lat="44.26927" lon="6.17278">
        <ele>1783.5999755859</ele>
        <time>2021-07-11T11:58:06Z</time>
      </trkpt>
      <trkpt lat="44.26927" lon="6.17277">
        <ele>1783.5999755859</ele>
        <time>2021-07-11T11:58:07Z</time>
      </trkpt>
      <trkpt lat="44.26929" lon="6.17272">
        <ele>1783.5999755859</ele>
        <time>2021-07-11T11:58:10Z</time>
      </trkpt>
      <trkpt lat="44.2693" lon="6.17265">
        <ele>1783.5999755859</ele>
        <time>2021-07-11T11:58:14Z</time>
      </trkpt>
      <trkpt lat="44.26935" lon="6.17244">
        <ele>1781.5999755859</ele>
        <time>2021-07-11T11:58:29Z</time>
      </trkpt>
      <trkpt lat="44.26937" lon="6.17228">
        <ele>1781.5999755859</ele>
        <time>2021-07-11T11:58:43Z</time>
      </trkpt>
      <trkpt lat="44.2694" lon="6.17208">
        <ele>1782.8000488281</ele>
        <time>2021-07-11T11:59:00Z</time>
      </trkpt>
      <trkpt lat="44.26942" lon="6.17195">
        <ele>1783.5999755859</ele>
        <time>2021-07-11T11:59:12Z</time>
      </trkpt>
      <trkpt lat="44.26945" lon="6.17185">
        <ele>1784.5999755859</ele>
        <time>2021-07-11T11:59:29Z</time>
      </trkpt>
      <trkpt lat="44.26947" lon="6.17169">
        <ele>1784.4000244141</ele>
        <time>2021-07-11T11:59:50Z</time>
      </trkpt>
      <trkpt lat="44.26949" lon="6.17145">
        <ele>1784</ele>
        <time>2021-07-11T12:00:08Z</time>
      </trkpt>
      <trkpt lat="44.2695" lon="6.17138">
        <ele>1783.4000244141</ele>
        <time>2021-07-11T12:00:13Z</time>
      </trkpt>
      <trkpt lat="44.2695" lon="6.17129">
        <ele>1782.8000488281</ele>
        <time>2021-07-11T12:00:19Z</time>
      </trkpt>
      <trkpt lat="44.26948" lon="6.17114">
        <ele>1781.8000488281</ele>
        <time>2021-07-11T12:00:29Z</time>
      </trkpt>
      <trkpt lat="44.26947" lon="6.17106">
        <ele>1780.8000488281</ele>
        <time>2021-07-11T12:00:36Z</time>
      </trkpt>
      <trkpt lat="44.2695" lon="6.17094">
        <ele>1778.5999755859</ele>
        <time>2021-07-11T12:00:47Z</time>
      </trkpt>
      <trkpt lat="44.26951" lon="6.17075">
        <ele>1775.1999511719</ele>
        <time>2021-07-11T12:01:03Z</time>
      </trkpt>
      <trkpt lat="44.26952" lon="6.17058">
        <ele>1772.1999511719</ele>
        <time>2021-07-11T12:01:17Z</time>
      </trkpt>
      <trkpt lat="44.26954" lon="6.17045">
        <ele>1769</ele>
        <time>2021-07-11T12:01:29Z</time>
      </trkpt>
      <trkpt lat="44.26955" lon="6.17026">
        <ele>1765.8000488281</ele>
        <time>2021-07-11T12:01:43Z</time>
      </trkpt>
      <trkpt lat="44.26958" lon="6.17007">
        <ele>1762.8000488281</ele>
        <time>2021-07-11T12:02:02Z</time>
      </trkpt>
      <trkpt lat="44.26961" lon="6.16991">
        <ele>1760.4000244141</ele>
        <time>2021-07-11T12:02:18Z</time>
      </trkpt>
      <trkpt lat="44.26963" lon="6.16979">
        <ele>1757.1999511719</ele>
        <time>2021-07-11T12:02:32Z</time>
      </trkpt>
      <trkpt lat="44.26967" lon="6.16968">
        <ele>1754.1999511719</ele>
        <time>2021-07-11T12:02:47Z</time>
      </trkpt>
      <trkpt lat="44.26966" lon="6.16952">
        <ele>1751</ele>
        <time>2021-07-11T12:03:03Z</time>
      </trkpt>
      <trkpt lat="44.26967" lon="6.16937">
        <ele>1749</ele>
        <time>2021-07-11T12:03:16Z</time>
      </trkpt>
      <trkpt lat="44.26968" lon="6.16934">
        <ele>1748.5999755859</ele>
        <time>2021-07-11T12:03:18Z</time>
      </trkpt>
      <trkpt lat="44.26969" lon="6.16912">
        <ele>1747.1999511719</ele>
        <time>2021-07-11T12:03:35Z</time>
      </trkpt>
      <trkpt lat="44.2697" lon="6.16897">
        <ele>1747</ele>
        <time>2021-07-11T12:03:49Z</time>
      </trkpt>
      <trkpt lat="44.26972" lon="6.16878">
        <ele>1744.8000488281</ele>
        <time>2021-07-11T12:04:04Z</time>
      </trkpt>
      <trkpt lat="44.26975" lon="6.1685">
        <ele>1742.8000488281</ele>
        <time>2021-07-11T12:04:22Z</time>
      </trkpt>
      <trkpt lat="44.26979" lon="6.16824">
        <ele>1740</ele>
        <time>2021-07-11T12:04:39Z</time>
      </trkpt>
      <trkpt lat="44.26978" lon="6.16811">
        <ele>1739.4000244141</ele>
        <time>2021-07-11T12:04:48Z</time>
      </trkpt>
      <trkpt lat="44.26978" lon="6.16805">
        <ele>1738.8000488281</ele>
        <time>2021-07-11T12:04:52Z</time>
      </trkpt>
      <trkpt lat="44.2698" lon="6.16778">
        <ele>1737</ele>
        <time>2021-07-11T12:05:11Z</time>
      </trkpt>
      <trkpt lat="44.2698" lon="6.16777">
        <ele>1736.5999755859</ele>
        <time>2021-07-11T12:05:17Z</time>
      </trkpt>
      <trkpt lat="44.2698" lon="6.16769">
        <ele>1736.1999511719</ele>
        <time>2021-07-11T12:05:23Z</time>
      </trkpt>
      <trkpt lat="44.26982" lon="6.1675">
        <ele>1735.4000244141</ele>
        <time>2021-07-11T12:05:36Z</time>
      </trkpt>
      <trkpt lat="44.26982" lon="6.16728">
        <ele>1735</ele>
        <time>2021-07-11T12:05:50Z</time>
      </trkpt>
      <trkpt lat="44.2698" lon="6.16702">
        <ele>1734.8000488281</ele>
        <time>2021-07-11T12:06:09Z</time>
      </trkpt>
      <trkpt lat="44.26978" lon="6.16679">
        <ele>1734.1999511719</ele>
        <time>2021-07-11T12:06:26Z</time>
      </trkpt>
      <trkpt lat="44.26977" lon="6.1667">
        <ele>1733.4000244141</ele>
        <time>2021-07-11T12:06:32Z</time>
      </trkpt>
      <trkpt lat="44.26974" lon="6.16646">
        <ele>1732.8000488281</ele>
        <time>2021-07-11T12:06:52Z</time>
      </trkpt>
      <trkpt lat="44.26973" lon="6.1664">
        <ele>1732.8000488281</ele>
        <time>2021-07-11T12:06:57Z</time>
      </trkpt>
      <trkpt lat="44.26974" lon="6.16629">
        <ele>1733</ele>
        <time>2021-07-11T12:07:05Z</time>
      </trkpt>
      <trkpt lat="44.2697" lon="6.16608">
        <ele>1733.5999755859</ele>
        <time>2021-07-11T12:07:23Z</time>
      </trkpt>
      <trkpt lat="44.26973" lon="6.16587">
        <ele>1735.1999511719</ele>
        <time>2021-07-11T12:07:41Z</time>
      </trkpt>
      <trkpt lat="44.26976" lon="6.1657">
        <ele>1736.5999755859</ele>
        <time>2021-07-11T12:07:56Z</time>
      </trkpt>
      <trkpt lat="44.26976" lon="6.16553">
        <ele>1738.8000488281</ele>
        <time>2021-07-11T12:08:08Z</time>
      </trkpt>
      <trkpt lat="44.26974" lon="6.16545">
        <ele>1739.1999511719</ele>
        <time>2021-07-11T12:08:13Z</time>
      </trkpt>
      <trkpt lat="44.2697" lon="6.16518">
        <ele>1739.4000244141</ele>
        <time>2021-07-11T12:08:31Z</time>
      </trkpt>
      <trkpt lat="44.26971" lon="6.16509">
        <ele>1739.5999755859</ele>
        <time>2021-07-11T12:08:38Z</time>
      </trkpt>
      <trkpt lat="44.26971" lon="6.16505">
        <ele>1739.8000488281</ele>
        <time>2021-07-11T12:08:41Z</time>
      </trkpt>
      <trkpt lat="44.2697" lon="6.16474">
        <ele>1741.1999511719</ele>
        <time>2021-07-11T12:09:02Z</time>
      </trkpt>
      <trkpt lat="44.2697" lon="6.16461">
        <ele>1741.8000488281</ele>
        <time>2021-07-11T12:09:12Z</time>
      </trkpt>
      <trkpt lat="44.2697" lon="6.16438">
        <ele>1743</ele>
        <time>2021-07-11T12:09:30Z</time>
      </trkpt>
      <trkpt lat="44.26971" lon="6.16418">
        <ele>1745.1999511719</ele>
        <time>2021-07-11T12:09:47Z</time>
      </trkpt>
      <trkpt lat="44.26971" lon="6.16397">
        <ele>1746.8000488281</ele>
        <time>2021-07-11T12:10:03Z</time>
      </trkpt>
      <trkpt lat="44.26972" lon="6.16377">
        <ele>1748.1999511719</ele>
        <time>2021-07-11T12:10:20Z</time>
      </trkpt>
      <trkpt lat="44.26974" lon="6.16369">
        <ele>1748.1999511719</ele>
        <time>2021-07-11T12:10:26Z</time>
      </trkpt>
      <trkpt lat="44.26986" lon="6.16343">
        <ele>1746.5999755859</ele>
        <time>2021-07-11T12:10:45Z</time>
      </trkpt>
      <trkpt lat="44.26992" lon="6.16332">
        <ele>1745.5999755859</ele>
        <time>2021-07-11T12:10:56Z</time>
      </trkpt>
      <trkpt lat="44.26996" lon="6.16311">
        <ele>1746.1999511719</ele>
        <time>2021-07-11T12:11:12Z</time>
      </trkpt>
      <trkpt lat="44.26996" lon="6.16309">
        <ele>1746.4000244141</ele>
        <time>2021-07-11T12:11:14Z</time>
      </trkpt>
      <trkpt lat="44.26997" lon="6.1628">
        <ele>1748.5999755859</ele>
        <time>2021-07-11T12:11:34Z</time>
      </trkpt>
      <trkpt lat="44.26999" lon="6.1626">
        <ele>1750.4000244141</ele>
        <time>2021-07-11T12:11:51Z</time>
      </trkpt>
      <trkpt lat="44.26996" lon="6.16237">
        <ele>1753</ele>
        <time>2021-07-11T12:12:07Z</time>
      </trkpt>
      <trkpt lat="44.26991" lon="6.16213">
        <ele>1754.5999755859</ele>
        <time>2021-07-11T12:12:27Z</time>
      </trkpt>
      <trkpt lat="44.26987" lon="6.16197">
        <ele>1757</ele>
        <time>2021-07-11T12:12:46Z</time>
      </trkpt>
      <trkpt lat="44.26984" lon="6.16182">
        <ele>1757.4000244141</ele>
        <time>2021-07-11T12:13:02Z</time>
      </trkpt>
      <trkpt lat="44.26978" lon="6.16161">
        <ele>1759.5999755859</ele>
        <time>2021-07-11T12:13:21Z</time>
      </trkpt>
      <trkpt lat="44.26973" lon="6.16142">
        <ele>1761.5999755859</ele>
        <time>2021-07-11T12:13:40Z</time>
      </trkpt>
      <trkpt lat="44.26971" lon="6.16123">
        <ele>1764.4000244141</ele>
        <time>2021-07-11T12:14:04Z</time>
      </trkpt>
      <trkpt lat="44.26969" lon="6.16123">
        <ele>1764.5999755859</ele>
        <time>2021-07-11T12:14:56Z</time>
      </trkpt>
      <trkpt lat="44.26968" lon="6.16123">
        <ele>1765.5999755859</ele>
        <time>2021-07-11T12:15:28Z</time>
      </trkpt>
      <trkpt lat="44.26969" lon="6.16118">
        <ele>1765.5999755859</ele>
        <time>2021-07-11T12:15:41Z</time>
      </trkpt>
      <trkpt lat="44.2697" lon="6.16116">
        <ele>1765.8000488281</ele>
        <time>2021-07-11T12:15:43Z</time>
      </trkpt>
      <trkpt lat="44.2697" lon="6.1611">
        <ele>1765.8000488281</ele>
        <time>2021-07-11T12:15:47Z</time>
      </trkpt>
      <trkpt lat="44.26965" lon="6.16087">
        <ele>1765.5999755859</ele>
        <time>2021-07-11T12:16:05Z</time>
      </trkpt>
      <trkpt lat="44.26964" lon="6.16081">
        <ele>1765.4000244141</ele>
        <time>2021-07-11T12:16:09Z</time>
      </trkpt>
      <trkpt lat="44.26959" lon="6.16052">
        <ele>1765.5999755859</ele>
        <time>2021-07-11T12:16:30Z</time>
      </trkpt>
      <trkpt lat="44.26957" lon="6.16033">
        <ele>1766.5999755859</ele>
        <time>2021-07-11T12:16:46Z</time>
      </trkpt>
      <trkpt lat="44.26955" lon="6.16011">
        <ele>1767.5999755859</ele>
        <time>2021-07-11T12:17:04Z</time>
      </trkpt>
      <trkpt lat="44.26954" lon="6.16006">
        <ele>1768</ele>
        <time>2021-07-11T12:17:09Z</time>
      </trkpt>
      <trkpt lat="44.26955" lon="6.15993">
        <ele>1769.5999755859</ele>
        <time>2021-07-11T12:17:20Z</time>
      </trkpt>
      <trkpt lat="44.26955" lon="6.15981">
        <ele>1770.8000488281</ele>
        <time>2021-07-11T12:17:37Z</time>
      </trkpt>
      <trkpt lat="44.26952" lon="6.15967">
        <ele>1771.5999755859</ele>
        <time>2021-07-11T12:17:57Z</time>
      </trkpt>
      <trkpt lat="44.26952" lon="6.15951">
        <ele>1773.5999755859</ele>
        <time>2021-07-11T12:18:14Z</time>
      </trkpt>
      <trkpt lat="44.26953" lon="6.15935">
        <ele>1775.1999511719</ele>
        <time>2021-07-11T12:18:30Z</time>
      </trkpt>
      <trkpt lat="44.26951" lon="6.15918">
        <ele>1775.5999755859</ele>
        <time>2021-07-11T12:18:45Z</time>
      </trkpt>
      <trkpt lat="44.26954" lon="6.15897">
        <ele>1774.8000488281</ele>
        <time>2021-07-11T12:19:03Z</time>
      </trkpt>
      <trkpt lat="44.26955" lon="6.15891">
        <ele>1774.4000244141</ele>
        <time>2021-07-11T12:19:08Z</time>
      </trkpt>
      <trkpt lat="44.26956" lon="6.15871">
        <ele>1773.4000244141</ele>
        <time>2021-07-11T12:19:23Z</time>
      </trkpt>
      <trkpt lat="44.26955" lon="6.15848">
        <ele>1772.8000488281</ele>
        <time>2021-07-11T12:19:41Z</time>
      </trkpt>
      <trkpt lat="44.26954" lon="6.15827">
        <ele>1772.8000488281</ele>
        <time>2021-07-11T12:19:57Z</time>
      </trkpt>
      <trkpt lat="44.26954" lon="6.15811">
        <ele>1770.5999755859</ele>
        <time>2021-07-11T12:20:13Z</time>
      </trkpt>
      <trkpt lat="44.26953" lon="6.15794">
        <ele>1767.5999755859</ele>
        <time>2021-07-11T12:20:29Z</time>
      </trkpt>
      <trkpt lat="44.26949" lon="6.15771">
        <ele>1764.5999755859</ele>
        <time>2021-07-11T12:20:48Z</time>
      </trkpt>
      <trkpt lat="44.26946" lon="6.15755">
        <ele>1763.8000488281</ele>
        <time>2021-07-11T12:21:04Z</time>
      </trkpt>
      <trkpt lat="44.26944" lon="6.15731">
        <ele>1762</ele>
        <time>2021-07-11T12:21:23Z</time>
      </trkpt>
      <trkpt lat="44.26943" lon="6.15706">
        <ele>1761.8000488281</ele>
        <time>2021-07-11T12:21:41Z</time>
      </trkpt>
      <trkpt lat="44.2694" lon="6.15685">
        <ele>1760.4000244141</ele>
        <time>2021-07-11T12:21:58Z</time>
      </trkpt>
      <trkpt lat="44.2694" lon="6.15668">
        <ele>1758.4000244141</ele>
        <time>2021-07-11T12:22:16Z</time>
      </trkpt>
      <trkpt lat="44.26937" lon="6.15646">
        <ele>1756</ele>
        <time>2021-07-11T12:22:36Z</time>
      </trkpt>
      <trkpt lat="44.26933" lon="6.15625">
        <ele>1755.5999755859</ele>
        <time>2021-07-11T12:22:55Z</time>
      </trkpt>
      <trkpt lat="44.26932" lon="6.15605">
        <ele>1755.1999511719</ele>
        <time>2021-07-11T12:23:12Z</time>
      </trkpt>
      <trkpt lat="44.26929" lon="6.15599">
        <ele>1755</ele>
        <time>2021-07-11T12:23:28Z</time>
      </trkpt>
      <trkpt lat="44.26925" lon="6.15591">
        <ele>1752.5999755859</ele>
        <time>2021-07-11T12:23:45Z</time>
      </trkpt>
      <trkpt lat="44.2692" lon="6.15583">
        <ele>1750.5999755859</ele>
        <time>2021-07-11T12:23:58Z</time>
      </trkpt>
      <trkpt lat="44.26927" lon="6.15574">
        <ele>1747.5999755859</ele>
        <time>2021-07-11T12:24:12Z</time>
      </trkpt>
      <trkpt lat="44.26927" lon="6.15562">
        <ele>1745.1999511719</ele>
        <time>2021-07-11T12:24:30Z</time>
      </trkpt>
      <trkpt lat="44.26918" lon="6.15551">
        <ele>1742.1999511719</ele>
        <time>2021-07-11T12:24:46Z</time>
      </trkpt>
      <trkpt lat="44.26909" lon="6.15546">
        <ele>1740</ele>
        <time>2021-07-11T12:24:56Z</time>
      </trkpt>
      <trkpt lat="44.26901" lon="6.15535">
        <ele>1736.5999755859</ele>
        <time>2021-07-11T12:25:10Z</time>
      </trkpt>
      <trkpt lat="44.26899" lon="6.15518">
        <ele>1733.8000488281</ele>
        <time>2021-07-11T12:25:29Z</time>
      </trkpt>
      <trkpt lat="44.26898" lon="6.15514">
        <ele>1733.1999511719</ele>
        <time>2021-07-11T12:25:32Z</time>
      </trkpt>
      <trkpt lat="44.26896" lon="6.15508">
        <ele>1732.4000244141</ele>
        <time>2021-07-11T12:25:37Z</time>
      </trkpt>
      <trkpt lat="44.26894" lon="6.15499">
        <ele>1731.1999511719</ele>
        <time>2021-07-11T12:25:42Z</time>
      </trkpt>
      <trkpt lat="44.2689" lon="6.15477">
        <ele>1730</ele>
        <time>2021-07-11T12:25:57Z</time>
      </trkpt>
      <trkpt lat="44.26882" lon="6.15459">
        <ele>1727.8000488281</ele>
        <time>2021-07-11T12:26:12Z</time>
      </trkpt>
      <trkpt lat="44.26876" lon="6.15439">
        <ele>1727.4000244141</ele>
        <time>2021-07-11T12:26:27Z</time>
      </trkpt>
      <trkpt lat="44.26876" lon="6.15439">
        <ele>1728.1999511719</ele>
        <time>2021-07-11T12:26:45Z</time>
      </trkpt>
      <trkpt lat="44.26876" lon="6.15437">
        <ele>1728.1999511719</ele>
        <time>2021-07-11T12:26:50Z</time>
      </trkpt>
      <trkpt lat="44.2687" lon="6.15403">
        <ele>1728.1999511719</ele>
        <time>2021-07-11T12:27:12Z</time>
      </trkpt>
      <trkpt lat="44.26869" lon="6.15374">
        <ele>1728.4000244141</ele>
        <time>2021-07-11T12:27:33Z</time>
      </trkpt>
      <trkpt lat="44.26867" lon="6.15358">
        <ele>1729.5999755859</ele>
        <time>2021-07-11T12:27:50Z</time>
      </trkpt>
      <trkpt lat="44.26867" lon="6.15333">
        <ele>1731.1999511719</ele>
        <time>2021-07-11T12:28:12Z</time>
      </trkpt>
      <trkpt lat="44.26868" lon="6.1531">
        <ele>1731.4000244141</ele>
        <time>2021-07-11T12:28:30Z</time>
      </trkpt>
      <trkpt lat="44.26866" lon="6.15286">
        <ele>1730.5999755859</ele>
        <time>2021-07-11T12:28:47Z</time>
      </trkpt>
      <trkpt lat="44.26866" lon="6.15266">
        <ele>1730</ele>
        <time>2021-07-11T12:29:02Z</time>
      </trkpt>
      <trkpt lat="44.26866" lon="6.15256">
        <ele>1729.5999755859</ele>
        <time>2021-07-11T12:29:10Z</time>
      </trkpt>
      <trkpt lat="44.26864" lon="6.15238">
        <ele>1728.4000244141</ele>
        <time>2021-07-11T12:29:24Z</time>
      </trkpt>
      <trkpt lat="44.26862" lon="6.15221">
        <ele>1727.8000488281</ele>
        <time>2021-07-11T12:29:37Z</time>
      </trkpt>
      <trkpt lat="44.2686" lon="6.15198">
        <ele>1727</ele>
        <time>2021-07-11T12:29:54Z</time>
      </trkpt>
      <trkpt lat="44.26858" lon="6.15183">
        <ele>1727.8000488281</ele>
        <time>2021-07-11T12:30:08Z</time>
      </trkpt>
      <trkpt lat="44.26858" lon="6.15164">
        <ele>1728.5999755859</ele>
        <time>2021-07-11T12:30:25Z</time>
      </trkpt>
      <trkpt lat="44.26855" lon="6.15154">
        <ele>1728.5999755859</ele>
        <time>2021-07-11T12:30:34Z</time>
      </trkpt>
      <trkpt lat="44.26855" lon="6.15133">
        <ele>1729.1999511719</ele>
        <time>2021-07-11T12:30:51Z</time>
      </trkpt>
      <trkpt lat="44.26852" lon="6.15111">
        <ele>1730</ele>
        <time>2021-07-11T12:31:08Z</time>
      </trkpt>
      <trkpt lat="44.26848" lon="6.15086">
        <ele>1730.5999755859</ele>
        <time>2021-07-11T12:31:26Z</time>
      </trkpt>
      <trkpt lat="44.26844" lon="6.1505">
        <ele>1730</ele>
        <time>2021-07-11T12:31:49Z</time>
      </trkpt>
      <trkpt lat="44.26844" lon="6.15022">
        <ele>1728.5999755859</ele>
        <time>2021-07-11T12:32:08Z</time>
      </trkpt>
      <trkpt lat="44.26846" lon="6.15007">
        <ele>1728.1999511719</ele>
        <time>2021-07-11T12:32:20Z</time>
      </trkpt>
      <trkpt lat="44.26845" lon="6.14995">
        <ele>1727</ele>
        <time>2021-07-11T12:32:29Z</time>
      </trkpt>
      <trkpt lat="44.26839" lon="6.14973">
        <ele>1725.5999755859</ele>
        <time>2021-07-11T12:32:47Z</time>
      </trkpt>
      <trkpt lat="44.26837" lon="6.14968">
        <ele>1727</ele>
        <time>2021-07-11T12:33:09Z</time>
      </trkpt>
      <trkpt lat="44.26829" lon="6.14958">
        <ele>1726.5999755859</ele>
        <time>2021-07-11T12:33:30Z</time>
      </trkpt>
      <trkpt lat="44.26821" lon="6.14952">
        <ele>1723.5999755859</ele>
        <time>2021-07-11T12:33:50Z</time>
      </trkpt>
      <trkpt lat="44.26819" lon="6.14971">
        <ele>1720.5999755859</ele>
        <time>2021-07-11T12:34:08Z</time>
      </trkpt>
      <trkpt lat="44.26811" lon="6.14971">
        <ele>1717.5999755859</ele>
        <time>2021-07-11T12:34:23Z</time>
      </trkpt>
      <trkpt lat="44.26803" lon="6.14965">
        <ele>1714.4000244141</ele>
        <time>2021-07-11T12:34:38Z</time>
      </trkpt>
      <trkpt lat="44.26798" lon="6.1498">
        <ele>1711.5999755859</ele>
        <time>2021-07-11T12:34:53Z</time>
      </trkpt>
      <trkpt lat="44.26797" lon="6.14986">
        <ele>1710.4000244141</ele>
        <time>2021-07-11T12:34:58Z</time>
      </trkpt>
      <trkpt lat="44.26795" lon="6.14996">
        <ele>1708.5999755859</ele>
        <time>2021-07-11T12:35:05Z</time>
      </trkpt>
      <trkpt lat="44.2679" lon="6.1502">
        <ele>1705.1999511719</ele>
        <time>2021-07-11T12:35:25Z</time>
      </trkpt>
      <trkpt lat="44.26787" lon="6.15039">
        <ele>1702</ele>
        <time>2021-07-11T12:35:41Z</time>
      </trkpt>
      <trkpt lat="44.26781" lon="6.15047">
        <ele>1700</ele>
        <time>2021-07-11T12:35:55Z</time>
      </trkpt>
      <trkpt lat="44.26777" lon="6.15033">
        <ele>1697.5999755859</ele>
        <time>2021-07-11T12:36:10Z</time>
      </trkpt>
      <trkpt lat="44.26773" lon="6.1502">
        <ele>1695.1999511719</ele>
        <time>2021-07-11T12:36:20Z</time>
      </trkpt>
      <trkpt lat="44.26768" lon="6.15003">
        <ele>1693.1999511719</ele>
        <time>2021-07-11T12:36:34Z</time>
      </trkpt>
      <trkpt lat="44.26764" lon="6.14994">
        <ele>1690</ele>
        <time>2021-07-11T12:36:47Z</time>
      </trkpt>
      <trkpt lat="44.26757" lon="6.14978">
        <ele>1687.5999755859</ele>
        <time>2021-07-11T12:37:24Z</time>
      </trkpt>
      <trkpt lat="44.26751" lon="6.1496">
        <ele>1684.4000244141</ele>
        <time>2021-07-11T12:37:41Z</time>
      </trkpt>
      <trkpt lat="44.26744" lon="6.14949">
        <ele>1681.8000488281</ele>
        <time>2021-07-11T12:37:53Z</time>
      </trkpt>
      <trkpt lat="44.26736" lon="6.14931">
        <ele>1678.4000244141</ele>
        <time>2021-07-11T12:38:08Z</time>
      </trkpt>
      <trkpt lat="44.26732" lon="6.1492">
        <ele>1676.1999511719</ele>
        <time>2021-07-11T12:38:17Z</time>
      </trkpt>
      <trkpt lat="44.26729" lon="6.14911">
        <ele>1675</ele>
        <time>2021-07-11T12:38:22Z</time>
      </trkpt>
      <trkpt lat="44.26727" lon="6.149">
        <ele>1673.4000244141</ele>
        <time>2021-07-11T12:38:30Z</time>
      </trkpt>
      <trkpt lat="44.26718" lon="6.14879">
        <ele>1671.4000244141</ele>
        <time>2021-07-11T12:38:46Z</time>
      </trkpt>
      <trkpt lat="44.26711" lon="6.1487">
        <ele>1669</ele>
        <time>2021-07-11T12:38:56Z</time>
      </trkpt>
      <trkpt lat="44.26703" lon="6.14859">
        <ele>1665.4000244141</ele>
        <time>2021-07-11T12:39:08Z</time>
      </trkpt>
      <trkpt lat="44.26699" lon="6.14852">
        <ele>1663.1999511719</ele>
        <time>2021-07-11T12:39:15Z</time>
      </trkpt>
      <trkpt lat="44.26689" lon="6.14829">
        <ele>1660.1999511719</ele>
        <time>2021-07-11T12:39:34Z</time>
      </trkpt>
      <trkpt lat="44.26681" lon="6.1481">
        <ele>1657.5999755859</ele>
        <time>2021-07-11T12:39:51Z</time>
      </trkpt>
      <trkpt lat="44.26674" lon="6.14802">
        <ele>1656</ele>
        <time>2021-07-11T12:39:59Z</time>
      </trkpt>
      <trkpt lat="44.2667" lon="6.14795">
        <ele>1655</ele>
        <time>2021-07-11T12:40:03Z</time>
      </trkpt>
      <trkpt lat="44.26667" lon="6.14781">
        <ele>1651.5999755859</ele>
        <time>2021-07-11T12:40:15Z</time>
      </trkpt>
      <trkpt lat="44.26663" lon="6.14768">
        <ele>1649.5999755859</ele>
        <time>2021-07-11T12:40:31Z</time>
      </trkpt>
      <trkpt lat="44.26654" lon="6.14744">
        <ele>1647</ele>
        <time>2021-07-11T12:40:46Z</time>
      </trkpt>
      <trkpt lat="44.2665" lon="6.14749">
        <ele>1644</ele>
        <time>2021-07-11T12:40:57Z</time>
      </trkpt>
      <trkpt lat="44.26646" lon="6.14764">
        <ele>1641</ele>
        <time>2021-07-11T12:41:11Z</time>
      </trkpt>
      <trkpt lat="44.26646" lon="6.14782">
        <ele>1637.8000488281</ele>
        <time>2021-07-11T12:41:22Z</time>
      </trkpt>
      <trkpt lat="44.26638" lon="6.14776">
        <ele>1634.8000488281</ele>
        <time>2021-07-11T12:41:40Z</time>
      </trkpt>
      <trkpt lat="44.26634" lon="6.14787">
        <ele>1631.8000488281</ele>
        <time>2021-07-11T12:41:54Z</time>
      </trkpt>
      <trkpt lat="44.26633" lon="6.14795">
        <ele>1630.4000244141</ele>
        <time>2021-07-11T12:41:59Z</time>
      </trkpt>
      <trkpt lat="44.26627" lon="6.14812">
        <ele>1627.5999755859</ele>
        <time>2021-07-11T12:42:17Z</time>
      </trkpt>
      <trkpt lat="44.26627" lon="6.14827">
        <ele>1624.4000244141</ele>
        <time>2021-07-11T12:42:29Z</time>
      </trkpt>
      <trkpt lat="44.26629" lon="6.14849">
        <ele>1621.1999511719</ele>
        <time>2021-07-11T12:42:47Z</time>
      </trkpt>
      <trkpt lat="44.26628" lon="6.14867">
        <ele>1618</ele>
        <time>2021-07-11T12:43:02Z</time>
      </trkpt>
      <trkpt lat="44.26627" lon="6.14868">
        <ele>1617.8000488281</ele>
        <time>2021-07-11T12:43:03Z</time>
      </trkpt>
      <trkpt lat="44.2662" lon="6.14881">
        <ele>1614.5999755859</ele>
        <time>2021-07-11T12:43:16Z</time>
      </trkpt>
      <trkpt lat="44.26615" lon="6.14886">
        <ele>1611.5999755859</ele>
        <time>2021-07-11T12:43:28Z</time>
      </trkpt>
      <trkpt lat="44.26608" lon="6.14872">
        <ele>1608.4000244141</ele>
        <time>2021-07-11T12:43:45Z</time>
      </trkpt>
      <trkpt lat="44.2659" lon="6.14864">
        <ele>1605.1999511719</ele>
        <time>2021-07-11T12:44:08Z</time>
      </trkpt>
      <trkpt lat="44.26585" lon="6.14859">
        <ele>1602</ele>
        <time>2021-07-11T12:44:18Z</time>
      </trkpt>
      <trkpt lat="44.26576" lon="6.14847">
        <ele>1599.1999511719</ele>
        <time>2021-07-11T12:44:34Z</time>
      </trkpt>
      <trkpt lat="44.26568" lon="6.14825">
        <ele>1597.8000488281</ele>
        <time>2021-07-11T12:45:00Z</time>
      </trkpt>
      <trkpt lat="44.26558" lon="6.14809">
        <ele>1594.5999755859</ele>
        <time>2021-07-11T12:45:17Z</time>
      </trkpt>
      <trkpt lat="44.26551" lon="6.14808">
        <ele>1591.4000244141</ele>
        <time>2021-07-11T12:45:33Z</time>
      </trkpt>
      <trkpt lat="44.26538" lon="6.14811">
        <ele>1588.1999511719</ele>
        <time>2021-07-11T12:45:49Z</time>
      </trkpt>
      <trkpt lat="44.26534" lon="6.14799">
        <ele>1585.1999511719</ele>
        <time>2021-07-11T12:46:00Z</time>
      </trkpt>
      <trkpt lat="44.26527" lon="6.14776">
        <ele>1583.4000244141</ele>
        <time>2021-07-11T12:46:20Z</time>
      </trkpt>
      <trkpt lat="44.26517" lon="6.14758">
        <ele>1580.8000488281</ele>
        <time>2021-07-11T12:46:37Z</time>
      </trkpt>
      <trkpt lat="44.26507" lon="6.14757">
        <ele>1577.4000244141</ele>
        <time>2021-07-11T12:46:48Z</time>
      </trkpt>
      <trkpt lat="44.26503" lon="6.14758">
        <ele>1576.5999755859</ele>
        <time>2021-07-11T12:46:52Z</time>
      </trkpt>
      <trkpt lat="44.26494" lon="6.14754">
        <ele>1574</ele>
        <time>2021-07-11T12:47:06Z</time>
      </trkpt>
      <trkpt lat="44.26491" lon="6.14773">
        <ele>1571.4000244141</ele>
        <time>2021-07-11T12:47:28Z</time>
      </trkpt>
      <trkpt lat="44.26484" lon="6.14798">
        <ele>1570</ele>
        <time>2021-07-11T12:47:48Z</time>
      </trkpt>
      <trkpt lat="44.26475" lon="6.14819">
        <ele>1567</ele>
        <time>2021-07-11T12:48:06Z</time>
      </trkpt>
      <trkpt lat="44.26466" lon="6.14837">
        <ele>1564</ele>
        <time>2021-07-11T12:48:23Z</time>
      </trkpt>
      <trkpt lat="44.26462" lon="6.14862">
        <ele>1561.5999755859</ele>
        <time>2021-07-11T12:48:42Z</time>
      </trkpt>
      <trkpt lat="44.26459" lon="6.14871">
        <ele>1560.5999755859</ele>
        <time>2021-07-11T12:48:48Z</time>
      </trkpt>
      <trkpt lat="44.26456" lon="6.14876">
        <ele>1559.8000488281</ele>
        <time>2021-07-11T12:48:51Z</time>
      </trkpt>
      <trkpt lat="44.26445" lon="6.14881">
        <ele>1557.5999755859</ele>
        <time>2021-07-11T12:49:07Z</time>
      </trkpt>
      <trkpt lat="44.26441" lon="6.14876">
        <ele>1556.1999511719</ele>
        <time>2021-07-11T12:49:15Z</time>
      </trkpt>
      <trkpt lat="44.26436" lon="6.14862">
        <ele>1553</ele>
        <time>2021-07-11T12:49:30Z</time>
      </trkpt>
      <trkpt lat="44.26434" lon="6.14853">
        <ele>1552.1999511719</ele>
        <time>2021-07-11T12:49:36Z</time>
      </trkpt>
      <trkpt lat="44.26431" lon="6.14848">
        <ele>1549.4000244141</ele>
        <time>2021-07-11T12:49:53Z</time>
      </trkpt>
      <trkpt lat="44.26428" lon="6.14853">
        <ele>1548.8000488281</ele>
        <time>2021-07-11T12:50:00Z</time>
      </trkpt>
      <trkpt lat="44.26424" lon="6.14868">
        <ele>1545.5999755859</ele>
        <time>2021-07-11T12:50:12Z</time>
      </trkpt>
      <trkpt lat="44.26418" lon="6.14877">
        <ele>1543.8000488281</ele>
        <time>2021-07-11T12:50:22Z</time>
      </trkpt>
      <trkpt lat="44.26405" lon="6.14878">
        <ele>1540.5999755859</ele>
        <time>2021-07-11T12:50:33Z</time>
      </trkpt>
      <trkpt lat="44.26401" lon="6.14885">
        <ele>1538.5999755859</ele>
        <time>2021-07-11T12:50:41Z</time>
      </trkpt>
      <trkpt lat="44.2639" lon="6.14895">
        <ele>1535.4000244141</ele>
        <time>2021-07-11T12:50:58Z</time>
      </trkpt>
      <trkpt lat="44.26387" lon="6.14893">
        <ele>1534</ele>
        <time>2021-07-11T12:51:02Z</time>
      </trkpt>
      <trkpt lat="44.26374" lon="6.14878">
        <ele>1531</ele>
        <time>2021-07-11T12:51:18Z</time>
      </trkpt>
      <trkpt lat="44.26365" lon="6.14874">
        <ele>1529</ele>
        <time>2021-07-11T12:51:30Z</time>
      </trkpt>
      <trkpt lat="44.26362" lon="6.14894">
        <ele>1526</ele>
        <time>2021-07-11T12:51:45Z</time>
      </trkpt>
      <trkpt lat="44.26361" lon="6.14901">
        <ele>1523.8000488281</ele>
        <time>2021-07-11T12:51:51Z</time>
      </trkpt>
      <trkpt lat="44.26356" lon="6.14918">
        <ele>1520.8000488281</ele>
        <time>2021-07-11T12:52:04Z</time>
      </trkpt>
      <trkpt lat="44.26345" lon="6.14926">
        <ele>1517.5999755859</ele>
        <time>2021-07-11T12:52:17Z</time>
      </trkpt>
      <trkpt lat="44.26338" lon="6.14911">
        <ele>1514.5999755859</ele>
        <time>2021-07-11T12:52:29Z</time>
      </trkpt>
      <trkpt lat="44.26335" lon="6.14907">
        <ele>1514.1999511719</ele>
        <time>2021-07-11T12:52:32Z</time>
      </trkpt>
      <trkpt lat="44.26321" lon="6.14906">
        <ele>1512</ele>
        <time>2021-07-11T12:52:46Z</time>
      </trkpt>
      <trkpt lat="44.26307" lon="6.14913">
        <ele>1509.8000488281</ele>
        <time>2021-07-11T12:52:59Z</time>
      </trkpt>
      <trkpt lat="44.26301" lon="6.14913">
        <ele>1509</ele>
        <time>2021-07-11T12:53:04Z</time>
      </trkpt>
      <trkpt lat="44.26294" lon="6.14901">
        <ele>1507.4000244141</ele>
        <time>2021-07-11T12:53:14Z</time>
      </trkpt>
      <trkpt lat="44.26292" lon="6.14895">
        <ele>1507.4000244141</ele>
        <time>2021-07-11T12:53:18Z</time>
      </trkpt>
      <trkpt lat="44.26288" lon="6.14881">
        <ele>1506.8000488281</ele>
        <time>2021-07-11T12:53:33Z</time>
      </trkpt>
      <trkpt lat="44.26289" lon="6.14883">
        <ele>1506.1999511719</ele>
        <time>2021-07-11T12:54:01Z</time>
      </trkpt>
      <trkpt lat="44.26285" lon="6.14882">
        <ele>1506.5999755859</ele>
        <time>2021-07-11T12:54:40Z</time>
      </trkpt>
      <trkpt lat="44.26274" lon="6.14874">
        <ele>1505.8000488281</ele>
        <time>2021-07-11T12:54:52Z</time>
      </trkpt>
      <trkpt lat="44.26271" lon="6.14843">
        <ele>1504.4000244141</ele>
        <time>2021-07-11T12:55:12Z</time>
      </trkpt>
      <trkpt lat="44.26268" lon="6.14838">
        <ele>1504.4000244141</ele>
        <time>2021-07-11T12:55:17Z</time>
      </trkpt>
      <trkpt lat="44.26259" lon="6.14834">
        <ele>1503.5999755859</ele>
        <time>2021-07-11T12:55:30Z</time>
      </trkpt>
      <trkpt lat="44.26255" lon="6.14827">
        <ele>1501.5999755859</ele>
        <time>2021-07-11T12:55:38Z</time>
      </trkpt>
      <trkpt lat="44.26249" lon="6.14825">
        <ele>1498</ele>
        <time>2021-07-11T12:55:49Z</time>
      </trkpt>
      <trkpt lat="44.2624" lon="6.14829">
        <ele>1494.5999755859</ele>
        <time>2021-07-11T12:56:03Z</time>
      </trkpt>
      <trkpt lat="44.26228" lon="6.14823">
        <ele>1491.5999755859</ele>
        <time>2021-07-11T12:56:18Z</time>
      </trkpt>
      <trkpt lat="44.26217" lon="6.14826">
        <ele>1488.4000244141</ele>
        <time>2021-07-11T12:56:34Z</time>
      </trkpt>
      <trkpt lat="44.26216" lon="6.14827">
        <ele>1488</ele>
        <time>2021-07-11T12:56:35Z</time>
      </trkpt>
      <trkpt lat="44.26204" lon="6.14831">
        <ele>1485</ele>
        <time>2021-07-11T12:56:49Z</time>
      </trkpt>
      <trkpt lat="44.26202" lon="6.14831">
        <ele>1484.4000244141</ele>
        <time>2021-07-11T12:56:51Z</time>
      </trkpt>
      <trkpt lat="44.26199" lon="6.14831">
        <ele>1483.8000488281</ele>
        <time>2021-07-11T12:56:54Z</time>
      </trkpt>
      <trkpt lat="44.26192" lon="6.1483">
        <ele>1482.4000244141</ele>
        <time>2021-07-11T12:57:00Z</time>
      </trkpt>
      <trkpt lat="44.26183" lon="6.14841">
        <ele>1480</ele>
        <time>2021-07-11T12:57:14Z</time>
      </trkpt>
      <trkpt lat="44.26184" lon="6.14837">
        <ele>1478.4000244141</ele>
        <time>2021-07-11T12:57:44Z</time>
      </trkpt>
      <trkpt lat="44.26166" lon="6.14842">
        <ele>1477.4000244141</ele>
        <time>2021-07-11T12:58:05Z</time>
      </trkpt>
      <trkpt lat="44.26154" lon="6.1483">
        <ele>1475</ele>
        <time>2021-07-11T12:58:25Z</time>
      </trkpt>
      <trkpt lat="44.26145" lon="6.14819">
        <ele>1472.8000488281</ele>
        <time>2021-07-11T12:58:39Z</time>
      </trkpt>
      <trkpt lat="44.26138" lon="6.14817">
        <ele>1471.4000244141</ele>
        <time>2021-07-11T12:58:46Z</time>
      </trkpt>
      <trkpt lat="44.26133" lon="6.14823">
        <ele>1469.4000244141</ele>
        <time>2021-07-11T12:58:55Z</time>
      </trkpt>
      <trkpt lat="44.26132" lon="6.14852">
        <ele>1466.1999511719</ele>
        <time>2021-07-11T12:59:16Z</time>
      </trkpt>
      <trkpt lat="44.26122" lon="6.14869">
        <ele>1464</ele>
        <time>2021-07-11T12:59:33Z</time>
      </trkpt>
      <trkpt lat="44.26117" lon="6.14871">
        <ele>1461.1999511719</ele>
        <time>2021-07-11T13:00:01Z</time>
      </trkpt>
      <trkpt lat="44.26109" lon="6.14855">
        <ele>1460</ele>
        <time>2021-07-11T13:00:26Z</time>
      </trkpt>
      <trkpt lat="44.26108" lon="6.14848">
        <ele>1459</ele>
        <time>2021-07-11T13:00:30Z</time>
      </trkpt>
      <trkpt lat="44.26103" lon="6.14837">
        <ele>1458.1999511719</ele>
        <time>2021-07-11T13:00:38Z</time>
      </trkpt>
      <trkpt lat="44.26093" lon="6.14821">
        <ele>1455.5999755859</ele>
        <time>2021-07-11T13:00:52Z</time>
      </trkpt>
      <trkpt lat="44.2609" lon="6.14817">
        <ele>1454.8000488281</ele>
        <time>2021-07-11T13:00:56Z</time>
      </trkpt>
      <trkpt lat="44.26082" lon="6.14833">
        <ele>1451.4000244141</ele>
        <time>2021-07-11T13:01:12Z</time>
      </trkpt>
      <trkpt lat="44.26076" lon="6.1484">
        <ele>1449.4000244141</ele>
        <time>2021-07-11T13:01:25Z</time>
      </trkpt>
      <trkpt lat="44.26062" lon="6.14837">
        <ele>1447.5999755859</ele>
        <time>2021-07-11T13:01:34Z</time>
      </trkpt>
      <trkpt lat="44.26051" lon="6.1483">
        <ele>1444.1999511719</ele>
        <time>2021-07-11T13:01:48Z</time>
      </trkpt>
      <trkpt lat="44.26039" lon="6.14828">
        <ele>1442.1999511719</ele>
        <time>2021-07-11T13:02:04Z</time>
      </trkpt>
      <trkpt lat="44.26024" lon="6.1483">
        <ele>1438.8000488281</ele>
        <time>2021-07-11T13:02:19Z</time>
      </trkpt>
      <trkpt lat="44.26011" lon="6.14838">
        <ele>1436</ele>
        <time>2021-07-11T13:02:41Z</time>
      </trkpt>
      <trkpt lat="44.26003" lon="6.14841">
        <ele>1435.1999511719</ele>
        <time>2021-07-11T13:02:49Z</time>
      </trkpt>
      <trkpt lat="44.26" lon="6.14843">
        <ele>1435</ele>
        <time>2021-07-11T13:02:52Z</time>
      </trkpt>
      <trkpt lat="44.25993" lon="6.14847">
        <ele>1434.1999511719</ele>
        <time>2021-07-11T13:03:00Z</time>
      </trkpt>
      <trkpt lat="44.25988" lon="6.1485">
        <ele>1433.4000244141</ele>
        <time>2021-07-11T13:03:05Z</time>
      </trkpt>
      <trkpt lat="44.25966" lon="6.14855">
        <ele>1430.5999755859</ele>
        <time>2021-07-11T13:03:24Z</time>
      </trkpt>
      <trkpt lat="44.25951" lon="6.14862">
        <ele>1427.8000488281</ele>
        <time>2021-07-11T13:03:41Z</time>
      </trkpt>
      <trkpt lat="44.25947" lon="6.14866">
        <ele>1427</ele>
        <time>2021-07-11T13:03:46Z</time>
      </trkpt>
      <trkpt lat="44.25935" lon="6.14862">
        <ele>1425</ele>
        <time>2021-07-11T13:03:56Z</time>
      </trkpt>
      <trkpt lat="44.25924" lon="6.14869">
        <ele>1422.5999755859</ele>
        <time>2021-07-11T13:04:11Z</time>
      </trkpt>
      <trkpt lat="44.25922" lon="6.1487">
        <ele>1422.1999511719</ele>
        <time>2021-07-11T13:04:13Z</time>
      </trkpt>
      <trkpt lat="44.25905" lon="6.14867">
        <ele>1419</ele>
        <time>2021-07-11T13:04:31Z</time>
      </trkpt>
      <trkpt lat="44.2589" lon="6.14871">
        <ele>1415.8000488281</ele>
        <time>2021-07-11T13:04:48Z</time>
      </trkpt>
      <trkpt lat="44.25884" lon="6.1488">
        <ele>1413.8000488281</ele>
        <time>2021-07-11T13:05:08Z</time>
      </trkpt>
      <trkpt lat="44.25884" lon="6.14885">
        <ele>1413.4000244141</ele>
        <time>2021-07-11T13:05:45Z</time>
      </trkpt>
      <trkpt lat="44.25885" lon="6.14902">
        <ele>1413.5999755859</ele>
        <time>2021-07-11T13:06:01Z</time>
      </trkpt>
      <trkpt lat="44.25887" lon="6.1491">
        <ele>1413.5999755859</ele>
        <time>2021-07-11T13:06:07Z</time>
      </trkpt>
      <trkpt lat="44.25895" lon="6.14932">
        <ele>1413.1999511719</ele>
        <time>2021-07-11T13:06:26Z</time>
      </trkpt>
      <trkpt lat="44.25896" lon="6.14933">
        <ele>1413.1999511719</ele>
        <time>2021-07-11T13:06:27Z</time>
      </trkpt>
      <trkpt lat="44.25907" lon="6.14959">
        <ele>1413</ele>
        <time>2021-07-11T13:06:46Z</time>
      </trkpt>
      <trkpt lat="44.25914" lon="6.14963">
        <ele>1413</ele>
        <time>2021-07-11T13:07:02Z</time>
      </trkpt>
      <trkpt lat="44.25916" lon="6.1496">
        <ele>1413</ele>
        <time>2021-07-11T13:07:45Z</time>
      </trkpt>
      <trkpt lat="44.25917" lon="6.14966">
        <ele>1413</ele>
        <time>2021-07-11T13:07:50Z</time>
      </trkpt>
      <trkpt lat="44.25929" lon="6.14985">
        <ele>1412.4000244141</ele>
        <time>2021-07-11T13:08:10Z</time>
      </trkpt>
      <trkpt lat="44.25946" lon="6.15">
        <ele>1411.5999755859</ele>
        <time>2021-07-11T13:08:27Z</time>
      </trkpt>
      <trkpt lat="44.25962" lon="6.15014">
        <ele>1410.4000244141</ele>
        <time>2021-07-11T13:08:43Z</time>
      </trkpt>
      <trkpt lat="44.25964" lon="6.15017">
        <ele>1410</ele>
        <time>2021-07-11T13:08:45Z</time>
      </trkpt>
      <trkpt lat="44.25968" lon="6.15021">
        <ele>1409.8000488281</ele>
        <time>2021-07-11T13:08:49Z</time>
      </trkpt>
      <trkpt lat="44.25978" lon="6.15046">
        <ele>1408.4000244141</ele>
        <time>2021-07-11T13:09:05Z</time>
      </trkpt>
      <trkpt lat="44.2598" lon="6.15074">
        <ele>1407</ele>
        <time>2021-07-11T13:09:21Z</time>
      </trkpt>
      <trkpt lat="44.2598" lon="6.15082">
        <ele>1406.5999755859</ele>
        <time>2021-07-11T13:09:25Z</time>
      </trkpt>
      <trkpt lat="44.25977" lon="6.15103">
        <ele>1405.1999511719</ele>
        <time>2021-07-11T13:09:40Z</time>
      </trkpt>
      <trkpt lat="44.25957" lon="6.15103">
        <ele>1403</ele>
        <time>2021-07-11T13:09:56Z</time>
      </trkpt>
      <trkpt lat="44.25953" lon="6.15101">
        <ele>1402.5999755859</ele>
        <time>2021-07-11T13:09:58Z</time>
      </trkpt>
      <trkpt lat="44.25946" lon="6.15095">
        <ele>1402</ele>
        <time>2021-07-11T13:10:04Z</time>
      </trkpt>
      <trkpt lat="44.25942" lon="6.15092">
        <ele>1401.4000244141</ele>
        <time>2021-07-11T13:10:07Z</time>
      </trkpt>
      <trkpt lat="44.25937" lon="6.15089">
        <ele>1401</ele>
        <time>2021-07-11T13:10:11Z</time>
      </trkpt>
      <trkpt lat="44.25931" lon="6.15082">
        <ele>1400.5999755859</ele>
        <time>2021-07-11T13:10:18Z</time>
      </trkpt>
      <trkpt lat="44.25918" lon="6.15068">
        <ele>1399</ele>
        <time>2021-07-11T13:10:33Z</time>
      </trkpt>
      <trkpt lat="44.25905" lon="6.15055">
        <ele>1397.4000244141</ele>
        <time>2021-07-11T13:10:50Z</time>
      </trkpt>
      <trkpt lat="44.25885" lon="6.15043">
        <ele>1395.8000488281</ele>
        <time>2021-07-11T13:11:07Z</time>
      </trkpt>
      <trkpt lat="44.25883" lon="6.15042">
        <ele>1395.5999755859</ele>
        <time>2021-07-11T13:11:09Z</time>
      </trkpt>
      <trkpt lat="44.25869" lon="6.1503">
        <ele>1393.4000244141</ele>
        <time>2021-07-11T13:11:29Z</time>
      </trkpt>
      <trkpt lat="44.25843" lon="6.15031">
        <ele>1390.5999755859</ele>
        <time>2021-07-11T13:11:51Z</time>
      </trkpt>
      <trkpt lat="44.25823" lon="6.1503">
        <ele>1389.4000244141</ele>
        <time>2021-07-11T13:12:07Z</time>
      </trkpt>
      <trkpt lat="44.25803" lon="6.15026">
        <ele>1387.4000244141</ele>
        <time>2021-07-11T13:12:27Z</time>
      </trkpt>
      <trkpt lat="44.25791" lon="6.15027">
        <ele>1385.5999755859</ele>
        <time>2021-07-11T13:12:38Z</time>
      </trkpt>
      <trkpt lat="44.25768" lon="6.15032">
        <ele>1384.4000244141</ele>
        <time>2021-07-11T13:12:59Z</time>
      </trkpt>
      <trkpt lat="44.2575" lon="6.15031">
        <ele>1382.8000488281</ele>
        <time>2021-07-11T13:13:16Z</time>
      </trkpt>
      <trkpt lat="44.25734" lon="6.15027">
        <ele>1380.5999755859</ele>
        <time>2021-07-11T13:13:29Z</time>
      </trkpt>
      <trkpt lat="44.25716" lon="6.15022">
        <ele>1377.8000488281</ele>
        <time>2021-07-11T13:13:43Z</time>
      </trkpt>
      <trkpt lat="44.25712" lon="6.15022">
        <ele>1377.4000244141</ele>
        <time>2021-07-11T13:13:46Z</time>
      </trkpt>
      <trkpt lat="44.25698" lon="6.15019">
        <ele>1376.5999755859</ele>
        <time>2021-07-11T13:13:57Z</time>
      </trkpt>
      <trkpt lat="44.25689" lon="6.15013">
        <ele>1376.5999755859</ele>
        <time>2021-07-11T13:14:05Z</time>
      </trkpt>
      <trkpt lat="44.25684" lon="6.15009">
        <ele>1376.4000244141</ele>
        <time>2021-07-11T13:14:09Z</time>
      </trkpt>
      <trkpt lat="44.25663" lon="6.14992">
        <ele>1375.8000488281</ele>
        <time>2021-07-11T13:14:28Z</time>
      </trkpt>
      <trkpt lat="44.25639" lon="6.14979">
        <ele>1374.8000488281</ele>
        <time>2021-07-11T13:14:50Z</time>
      </trkpt>
      <trkpt lat="44.25623" lon="6.1498">
        <ele>1373.4000244141</ele>
        <time>2021-07-11T13:15:06Z</time>
      </trkpt>
      <trkpt lat="44.25608" lon="6.14995">
        <ele>1371.8000488281</ele>
        <time>2021-07-11T13:15:23Z</time>
      </trkpt>
      <trkpt lat="44.256" lon="6.15014">
        <ele>1370.4000244141</ele>
        <time>2021-07-11T13:15:38Z</time>
      </trkpt>
      <trkpt lat="44.25599" lon="6.15021">
        <ele>1369.8000488281</ele>
        <time>2021-07-11T13:15:43Z</time>
      </trkpt>
      <trkpt lat="44.25602" lon="6.15052">
        <ele>1367.1999511719</ele>
        <time>2021-07-11T13:16:00Z</time>
      </trkpt>
      <trkpt lat="44.25601" lon="6.15081">
        <ele>1364.5999755859</ele>
        <time>2021-07-11T13:16:18Z</time>
      </trkpt>
      <trkpt lat="44.25599" lon="6.15108">
        <ele>1361.4000244141</ele>
        <time>2021-07-11T13:16:37Z</time>
      </trkpt>
      <trkpt lat="44.25599" lon="6.15138">
        <ele>1358.8000488281</ele>
        <time>2021-07-11T13:16:58Z</time>
      </trkpt>
      <trkpt lat="44.25595" lon="6.15167">
        <ele>1356</ele>
        <time>2021-07-11T13:17:20Z</time>
      </trkpt>
      <trkpt lat="44.25595" lon="6.15182">
        <ele>1354.5999755859</ele>
        <time>2021-07-11T13:17:29Z</time>
      </trkpt>
      <trkpt lat="44.25597" lon="6.15206">
        <ele>1353.1999511719</ele>
        <time>2021-07-11T13:17:43Z</time>
      </trkpt>
      <trkpt lat="44.25598" lon="6.15229">
        <ele>1350.8000488281</ele>
        <time>2021-07-11T13:18:01Z</time>
      </trkpt>
      <trkpt lat="44.25596" lon="6.15238">
        <ele>1350</ele>
        <time>2021-07-11T13:18:09Z</time>
      </trkpt>
      <trkpt lat="44.2559" lon="6.15268">
        <ele>1347</ele>
        <time>2021-07-11T13:18:30Z</time>
      </trkpt>
      <trkpt lat="44.2559" lon="6.15293">
        <ele>1345</ele>
        <time>2021-07-11T13:18:45Z</time>
      </trkpt>
      <trkpt lat="44.25587" lon="6.15312">
        <ele>1342.8000488281</ele>
        <time>2021-07-11T13:19:00Z</time>
      </trkpt>
      <trkpt lat="44.25582" lon="6.15325">
        <ele>1341.5999755859</ele>
        <time>2021-07-11T13:19:09Z</time>
      </trkpt>
      <trkpt lat="44.25573" lon="6.15348">
        <ele>1339.8000488281</ele>
        <time>2021-07-11T13:19:26Z</time>
      </trkpt>
      <trkpt lat="44.25563" lon="6.15374">
        <ele>1337.5999755859</ele>
        <time>2021-07-11T13:19:48Z</time>
      </trkpt>
      <trkpt lat="44.25557" lon="6.15387">
        <ele>1336.5999755859</ele>
        <time>2021-07-11T13:20:13Z</time>
      </trkpt>
      <trkpt lat="44.25554" lon="6.15382">
        <ele>1336.5999755859</ele>
        <time>2021-07-11T13:20:31Z</time>
      </trkpt>
      <trkpt lat="44.25553" lon="6.15383">
        <ele>1336.1999511719</ele>
        <time>2021-07-11T13:21:20Z</time>
      </trkpt>
      <trkpt lat="44.25554" lon="6.15369">
        <ele>1336.5999755859</ele>
        <time>2021-07-11T13:21:45Z</time>
      </trkpt>
      <trkpt lat="44.25545" lon="6.15369">
        <ele>1336.1999511719</ele>
        <time>2021-07-11T13:22:09Z</time>
      </trkpt>
      <trkpt lat="44.25548" lon="6.15368">
        <ele>1336.4000244141</ele>
        <time>2021-07-11T13:22:55Z</time>
      </trkpt>
      <trkpt lat="44.25546" lon="6.15365">
        <ele>1336.1999511719</ele>
        <time>2021-07-11T13:23:38Z</time>
      </trkpt>
      <trkpt lat="44.25545" lon="6.15365">
        <ele>1336.5999755859</ele>
        <time>2021-07-11T13:24:13Z</time>
      </trkpt>
      <trkpt lat="44.25548" lon="6.15363">
        <ele>1336.4000244141</ele>
        <time>2021-07-11T13:24:47Z</time>
      </trkpt>
      <trkpt lat="44.25549" lon="6.1535">
        <ele>1336</ele>
        <time>2021-07-11T13:25:17Z</time>
      </trkpt>
      <trkpt lat="44.25558" lon="6.15317">
        <ele>1335.5999755859</ele>
        <time>2021-07-11T13:25:43Z</time>
      </trkpt>
      <trkpt lat="44.25545" lon="6.15286">
        <ele>1335.4000244141</ele>
        <time>2021-07-11T13:26:04Z</time>
      </trkpt>
      <trkpt lat="44.25538" lon="6.15262">
        <ele>1334.1999511719</ele>
        <time>2021-07-11T13:26:17Z</time>
      </trkpt>
      <trkpt lat="44.25538" lon="6.15219">
        <ele>1332.5999755859</ele>
        <time>2021-07-11T13:26:42Z</time>
      </trkpt>
      <trkpt lat="44.25533" lon="6.15212">
        <ele>1332.8000488281</ele>
        <time>2021-07-11T13:26:47Z</time>
      </trkpt>
      <trkpt lat="44.2552" lon="6.15193">
        <ele>1332.4000244141</ele>
        <time>2021-07-11T13:27:03Z</time>
      </trkpt>
      <trkpt lat="44.25512" lon="6.15176">
        <ele>1332.1999511719</ele>
        <time>2021-07-11T13:27:15Z</time>
      </trkpt>
      <trkpt lat="44.2551" lon="6.1516">
        <ele>1332.1999511719</ele>
        <time>2021-07-11T13:27:27Z</time>
      </trkpt>
      <trkpt lat="44.25511" lon="6.15138">
        <ele>1332.1999511719</ele>
        <time>2021-07-11T13:27:42Z</time>
      </trkpt>
      <trkpt lat="44.25509" lon="6.1511">
        <ele>1332.1999511719</ele>
        <time>2021-07-11T13:27:58Z</time>
      </trkpt>
      <trkpt lat="44.25509" lon="6.15109">
        <ele>1332.1999511719</ele>
        <time>2021-07-11T13:27:59Z</time>
      </trkpt>
      <trkpt lat="44.25506" lon="6.15088">
        <ele>1332</ele>
        <time>2021-07-11T13:28:09Z</time>
      </trkpt>
      <trkpt lat="44.25509" lon="6.15069">
        <ele>1331.1999511719</ele>
        <time>2021-07-11T13:28:23Z</time>
      </trkpt>
      <trkpt lat="44.25504" lon="6.15045">
        <ele>1330</ele>
        <time>2021-07-11T13:28:39Z</time>
      </trkpt>
      <trkpt lat="44.25503" lon="6.15042">
        <ele>1329.5999755859</ele>
        <time>2021-07-11T13:28:41Z</time>
      </trkpt>
      <trkpt lat="44.25489" lon="6.15024">
        <ele>1328.4000244141</ele>
        <time>2021-07-11T13:29:00Z</time>
      </trkpt>
      <trkpt lat="44.25482" lon="6.15023">
        <ele>1327.8000488281</ele>
        <time>2021-07-11T13:29:06Z</time>
      </trkpt>
      <trkpt lat="44.25455" lon="6.1502">
        <ele>1325</ele>
        <time>2021-07-11T13:29:27Z</time>
      </trkpt>
      <trkpt lat="44.2544" lon="6.15011">
        <ele>1323.4000244141</ele>
        <time>2021-07-11T13:29:42Z</time>
      </trkpt>
      <trkpt lat="44.25427" lon="6.15">
        <ele>1322.1999511719</ele>
        <time>2021-07-11T13:29:55Z</time>
      </trkpt>
      <trkpt lat="44.25414" lon="6.15">
        <ele>1321</ele>
        <time>2021-07-11T13:30:07Z</time>
      </trkpt>
      <trkpt lat="44.25405" lon="6.15003">
        <ele>1320</ele>
        <time>2021-07-11T13:30:15Z</time>
      </trkpt>
      <trkpt lat="44.25387" lon="6.14996">
        <ele>1318.5999755859</ele>
        <time>2021-07-11T13:30:33Z</time>
      </trkpt>
      <trkpt lat="44.25371" lon="6.1498">
        <ele>1316.5999755859</ele>
        <time>2021-07-11T13:30:51Z</time>
      </trkpt>
      <trkpt lat="44.2536" lon="6.14981">
        <ele>1315.5999755859</ele>
        <time>2021-07-11T13:31:03Z</time>
      </trkpt>
      <trkpt lat="44.2534" lon="6.14992">
        <ele>1312.8000488281</ele>
        <time>2021-07-11T13:31:23Z</time>
      </trkpt>
      <trkpt lat="44.25326" lon="6.15005">
        <ele>1310.5999755859</ele>
        <time>2021-07-11T13:31:38Z</time>
      </trkpt>
      <trkpt lat="44.25309" lon="6.15009">
        <ele>1307.5999755859</ele>
        <time>2021-07-11T13:31:55Z</time>
      </trkpt>
      <trkpt lat="44.25288" lon="6.15004">
        <ele>1305.1999511719</ele>
        <time>2021-07-11T13:32:15Z</time>
      </trkpt>
      <trkpt lat="44.25261" lon="6.15014">
        <ele>1302.4000244141</ele>
        <time>2021-07-11T13:32:38Z</time>
      </trkpt>
      <trkpt lat="44.25249" lon="6.15037">
        <ele>1299.5999755859</ele>
        <time>2021-07-11T13:32:55Z</time>
      </trkpt>
      <trkpt lat="44.25238" lon="6.15053">
        <ele>1296.5999755859</ele>
        <time>2021-07-11T13:33:10Z</time>
      </trkpt>
      <trkpt lat="44.25228" lon="6.15066">
        <ele>1294.8000488281</ele>
        <time>2021-07-11T13:33:30Z</time>
      </trkpt>
      <trkpt lat="44.25227" lon="6.15068">
        <ele>1294.1999511719</ele>
        <time>2021-07-11T13:33:44Z</time>
      </trkpt>
      <trkpt lat="44.25215" lon="6.15073">
        <ele>1294</ele>
        <time>2021-07-11T13:33:52Z</time>
      </trkpt>
      <trkpt lat="44.25201" lon="6.15096">
        <ele>1292.1999511719</ele>
        <time>2021-07-11T13:34:14Z</time>
      </trkpt>
      <trkpt lat="44.25193" lon="6.15126">
        <ele>1289.1999511719</ele>
        <time>2021-07-11T13:34:33Z</time>
      </trkpt>
      <trkpt lat="44.25184" lon="6.15146">
        <ele>1286.5999755859</ele>
        <time>2021-07-11T13:34:48Z</time>
      </trkpt>
      <trkpt lat="44.25176" lon="6.15153">
        <ele>1285.5999755859</ele>
        <time>2021-07-11T13:34:55Z</time>
      </trkpt>
      <trkpt lat="44.25168" lon="6.15148">
        <ele>1284.4000244141</ele>
        <time>2021-07-11T13:35:01Z</time>
      </trkpt>
      <trkpt lat="44.2517" lon="6.15127">
        <ele>1283</ele>
        <time>2021-07-11T13:35:14Z</time>
      </trkpt>
      <trkpt lat="44.25174" lon="6.15116">
        <ele>1281.8000488281</ele>
        <time>2021-07-11T13:35:21Z</time>
      </trkpt>
      <trkpt lat="44.25179" lon="6.15092">
        <ele>1279.8000488281</ele>
        <time>2021-07-11T13:35:36Z</time>
      </trkpt>
      <trkpt lat="44.25179" lon="6.15082">
        <ele>1279</ele>
        <time>2021-07-11T13:35:42Z</time>
      </trkpt>
      <trkpt lat="44.25174" lon="6.15064">
        <ele>1277.8000488281</ele>
        <time>2021-07-11T13:35:53Z</time>
      </trkpt>
      <trkpt lat="44.25174" lon="6.1506">
        <ele>1277.5999755859</ele>
        <time>2021-07-11T13:35:55Z</time>
      </trkpt>
      <trkpt lat="44.25168" lon="6.15042">
        <ele>1277</ele>
        <time>2021-07-11T13:36:09Z</time>
      </trkpt>
      <trkpt lat="44.25166" lon="6.15013">
        <ele>1274</ele>
        <time>2021-07-11T13:36:30Z</time>
      </trkpt>
      <trkpt lat="44.2516" lon="6.14981">
        <ele>1271</ele>
        <time>2021-07-11T13:36:51Z</time>
      </trkpt>
      <trkpt lat="44.2515" lon="6.14959">
        <ele>1268</ele>
        <time>2021-07-11T13:37:10Z</time>
      </trkpt>
      <trkpt lat="44.25142" lon="6.14955">
        <ele>1267.1999511719</ele>
        <time>2021-07-11T13:37:16Z</time>
      </trkpt>
      <trkpt lat="44.25135" lon="6.14945">
        <ele>1266.1999511719</ele>
        <time>2021-07-11T13:37:23Z</time>
      </trkpt>
      <trkpt lat="44.25128" lon="6.14937">
        <ele>1265.4000244141</ele>
        <time>2021-07-11T13:37:29Z</time>
      </trkpt>
      <trkpt lat="44.25119" lon="6.14923">
        <ele>1263.5999755859</ele>
        <time>2021-07-11T13:37:44Z</time>
      </trkpt>
      <trkpt lat="44.25103" lon="6.14906">
        <ele>1260.4000244141</ele>
        <time>2021-07-11T13:38:03Z</time>
      </trkpt>
      <trkpt lat="44.25086" lon="6.14875">
        <ele>1257.8000488281</ele>
        <time>2021-07-11T13:38:23Z</time>
      </trkpt>
      <trkpt lat="44.25085" lon="6.14873">
        <ele>1257.1999511719</ele>
        <time>2021-07-11T13:38:25Z</time>
      </trkpt>
      <trkpt lat="44.25089" lon="6.14856">
        <ele>1254.8000488281</ele>
        <time>2021-07-11T13:38:39Z</time>
      </trkpt>
      <trkpt lat="44.25111" lon="6.14834">
        <ele>1251.8000488281</ele>
        <time>2021-07-11T13:39:02Z</time>
      </trkpt>
      <trkpt lat="44.25112" lon="6.14822">
        <ele>1250.5999755859</ele>
        <time>2021-07-11T13:39:09Z</time>
      </trkpt>
      <trkpt lat="44.25111" lon="6.14812">
        <ele>1250</ele>
        <time>2021-07-11T13:39:16Z</time>
      </trkpt>
      <trkpt lat="44.25109" lon="6.14808">
        <ele>1249.8000488281</ele>
        <time>2021-07-11T13:39:19Z</time>
      </trkpt>
      <trkpt lat="44.25098" lon="6.14794">
        <ele>1249.8000488281</ele>
        <time>2021-07-11T13:39:36Z</time>
      </trkpt>
      <trkpt lat="44.25095" lon="6.14791">
        <ele>1249.8000488281</ele>
        <time>2021-07-11T13:39:39Z</time>
      </trkpt>
      <trkpt lat="44.25091" lon="6.14788">
        <ele>1249.8000488281</ele>
        <time>2021-07-11T13:39:41Z</time>
      </trkpt>
      <trkpt lat="44.25078" lon="6.14776">
        <ele>1249</ele>
        <time>2021-07-11T13:39:55Z</time>
      </trkpt>
      <trkpt lat="44.25077" lon="6.14776">
        <ele>1249</ele>
        <time>2021-07-11T13:39:56Z</time>
      </trkpt>
      <trkpt lat="44.25063" lon="6.14766">
        <ele>1248.4000244141</ele>
        <time>2021-07-11T13:40:09Z</time>
      </trkpt>
      <trkpt lat="44.2505" lon="6.14749">
        <ele>1247.4000244141</ele>
        <time>2021-07-11T13:40:23Z</time>
      </trkpt>
      <trkpt lat="44.25043" lon="6.14736">
        <ele>1246.4000244141</ele>
        <time>2021-07-11T13:40:32Z</time>
      </trkpt>
      <trkpt lat="44.25035" lon="6.14713">
        <ele>1245</ele>
        <time>2021-07-11T13:40:49Z</time>
      </trkpt>
      <trkpt lat="44.25028" lon="6.14691">
        <ele>1243.4000244141</ele>
        <time>2021-07-11T13:41:05Z</time>
      </trkpt>
      <trkpt lat="44.25027" lon="6.14684">
        <ele>1243</ele>
        <time>2021-07-11T13:41:09Z</time>
      </trkpt>
      <trkpt lat="44.25022" lon="6.14663">
        <ele>1242.1999511719</ele>
        <time>2021-07-11T13:41:22Z</time>
      </trkpt>
      <trkpt lat="44.25017" lon="6.1465">
        <ele>1241.5999755859</ele>
        <time>2021-07-11T13:41:29Z</time>
      </trkpt>
      <trkpt lat="44.25003" lon="6.14625">
        <ele>1240.5999755859</ele>
        <time>2021-07-11T13:41:45Z</time>
      </trkpt>
      <trkpt lat="44.25002" lon="6.14623">
        <ele>1240.4000244141</ele>
        <time>2021-07-11T13:41:46Z</time>
      </trkpt>
      <trkpt lat="44.24992" lon="6.14608">
        <ele>1239.5999755859</ele>
        <time>2021-07-11T13:42:00Z</time>
      </trkpt>
      <trkpt lat="44.24983" lon="6.14591">
        <ele>1238.4000244141</ele>
        <time>2021-07-11T13:42:13Z</time>
      </trkpt>
      <trkpt lat="44.24977" lon="6.14571">
        <ele>1237.1999511719</ele>
        <time>2021-07-11T13:42:29Z</time>
      </trkpt>
      <trkpt lat="44.24967" lon="6.14549">
        <ele>1236.4000244141</ele>
        <time>2021-07-11T13:42:46Z</time>
      </trkpt>
      <trkpt lat="44.24962" lon="6.14538">
        <ele>1236.1999511719</ele>
        <time>2021-07-11T13:42:52Z</time>
      </trkpt>
      <trkpt lat="44.24955" lon="6.14529">
        <ele>1235.8000488281</ele>
        <time>2021-07-11T13:43:00Z</time>
      </trkpt>
      <trkpt lat="44.24949" lon="6.14522">
        <ele>1235.8000488281</ele>
        <time>2021-07-11T13:43:07Z</time>
      </trkpt>
      <trkpt lat="44.24938" lon="6.14496">
        <ele>1235</ele>
        <time>2021-07-11T13:43:26Z</time>
      </trkpt>
      <trkpt lat="44.24931" lon="6.14471">
        <ele>1233.1999511719</ele>
        <time>2021-07-11T13:43:46Z</time>
      </trkpt>
      <trkpt lat="44.24927" lon="6.14468">
        <ele>1232.1999511719</ele>
        <time>2021-07-11T13:44:10Z</time>
      </trkpt>
      <trkpt lat="44.24926" lon="6.14449">
        <ele>1231.1999511719</ele>
        <time>2021-07-11T13:44:31Z</time>
      </trkpt>
      <trkpt lat="44.24928" lon="6.14446">
        <ele>1230.8000488281</ele>
        <time>2021-07-11T13:44:45Z</time>
      </trkpt>
    </trkseg>
  </trk>
</gpx>